<?xml version='1.0' encoding='UTF-8'?><gpx version="1.1" creator="JPX - https://github.com/jenetics/jpx" xmlns="http://www.topografix.com/GPX/1/1"><trk><trkseg><trkpt lat="44.7311342" lon="7.9852375"><ele>197.00000000000003</ele><time>2026-04-18T15:19:01.549Z</time></trkpt><trkpt lat="44.7311085" lon="7.9853453"><ele>197.0</ele><time>2026-04-18T15:19:18.269Z</time></trkpt><trkpt lat="44.7310875" lon="7.9854896"><ele>197.0</ele><time>2026-04-18T15:19:22.27Z</time></trkpt><trkpt lat="44.7310851" lon="7.9855952"><ele>197.0</ele><time>2026-04-18T15:19:23.264Z</time></trkpt><trkpt lat="44.7310734" lon="7.9857016"><ele>197.00000000000003</ele><time>2026-04-18T15:19:25.28Z</time></trkpt><trkpt lat="44.731038" lon="7.9857918"><ele>197.0</ele><time>2026-04-18T15:19:27.264Z</time></trkpt><trkpt lat="44.7309776" lon="7.9858798"><ele>197.0</ele><time>2026-04-18T15:19:29.27Z</time></trkpt><trkpt lat="44.7308887" lon="7.9859192"><ele>197.0</ele><time>2026-04-18T15:19:31.273Z</time></trkpt><trkpt lat="44.7307968" lon="7.9858795"><ele>197.0</ele><time>2026-04-18T15:19:33.177Z</time></trkpt><trkpt lat="44.7307421" lon="7.9858331"><ele>197.0</ele><time>2026-04-18T15:19:34.266Z</time></trkpt><trkpt lat="44.7306514" lon="7.9858155"><ele>197.0</ele><time>2026-04-18T15:19:36.275Z</time></trkpt><trkpt lat="44.7306172" lon="7.9859816"><ele>197.0</ele><time>2026-04-18T15:19:38.262Z</time></trkpt><trkpt lat="44.7306108" lon="7.9860946"><ele>197.0</ele><time>2026-04-18T15:19:39.281Z</time></trkpt><trkpt lat="44.7306086" lon="7.9862196"><ele>197.0</ele><time>2026-04-18T15:19:40.268Z</time></trkpt><trkpt lat="44.7306057" lon="7.9863535"><ele>197.0</ele><time>2026-04-18T15:19:41.263Z</time></trkpt><trkpt lat="44.7306016" lon="7.9864976"><ele>197.0</ele><time>2026-04-18T15:19:42.269Z</time></trkpt><trkpt lat="44.7305969" lon="7.9866454"><ele>197.5</ele><time>2026-04-18T15:19:43.263Z</time></trkpt><trkpt lat="44.7305907" lon="7.9868022"><ele>198.0</ele><time>2026-04-18T15:19:44.275Z</time></trkpt><trkpt lat="44.7305855" lon="7.9869632"><ele>198.5</ele><time>2026-04-18T15:19:45.274Z</time></trkpt><trkpt lat="44.7305792" lon="7.9871274"><ele>199.0</ele><time>2026-04-18T15:19:46.271Z</time></trkpt><trkpt lat="44.7305752" lon="7.9872925"><ele>199.0</ele><time>2026-04-18T15:19:47.277Z</time></trkpt><trkpt lat="44.7305733" lon="7.9874581"><ele>199.0</ele><time>2026-04-18T15:19:48.273Z</time></trkpt><trkpt lat="44.7305731" lon="7.9876242"><ele>199.0</ele><time>2026-04-18T15:19:49.277Z</time></trkpt><trkpt lat="44.7305744" lon="7.9877879"><ele>199.0</ele><time>2026-04-18T15:19:50.268Z</time></trkpt><trkpt lat="44.7305734" lon="7.9879502"><ele>199.25</ele><time>2026-04-18T15:19:51.262Z</time></trkpt><trkpt lat="44.7305705" lon="7.9881138"><ele>199.5</ele><time>2026-04-18T15:19:52.268Z</time></trkpt><trkpt lat="44.7305659" lon="7.9882798"><ele>199.75</ele><time>2026-04-18T15:19:53.267Z</time></trkpt><trkpt lat="44.7305607" lon="7.9884472"><ele>200.0</ele><time>2026-04-18T15:19:54.276Z</time></trkpt><trkpt lat="44.7305569" lon="7.9886164"><ele>200.0</ele><time>2026-04-18T15:19:55.274Z</time></trkpt><trkpt lat="44.7305548" lon="7.9887863"><ele>200.0</ele><time>2026-04-18T15:19:56.268Z</time></trkpt><trkpt lat="44.7305527" lon="7.9889554"><ele>200.0</ele><time>2026-04-18T15:19:57.264Z</time></trkpt><trkpt lat="44.7305465" lon="7.9891257"><ele>200.0</ele><time>2026-04-18T15:19:58.269Z</time></trkpt><trkpt lat="44.7305296" lon="7.9892955"><ele>200.25</ele><time>2026-04-18T15:19:59.273Z</time></trkpt><trkpt lat="44.7305007" lon="7.9894668"><ele>200.5</ele><time>2026-04-18T15:20:00.272Z</time></trkpt><trkpt lat="44.7304585" lon="7.989636"><ele>200.75</ele><time>2026-04-18T15:20:01.274Z</time></trkpt><trkpt lat="44.7304025" lon="7.9897989"><ele>201.0</ele><time>2026-04-18T15:20:02.273Z</time></trkpt><trkpt lat="44.7303356" lon="7.9899544"><ele>199.5</ele><time>2026-04-18T15:20:03.278Z</time></trkpt><trkpt lat="44.7302611" lon="7.9901109"><ele>198.0</ele><time>2026-04-18T15:20:04.263Z</time></trkpt><trkpt lat="44.7301806" lon="7.9902729"><ele>196.5</ele><time>2026-04-18T15:20:05.274Z</time></trkpt><trkpt lat="44.7301039" lon="7.9904309"><ele>195.0</ele><time>2026-04-18T15:20:06.267Z</time></trkpt><trkpt lat="44.7300309" lon="7.9905812"><ele>195.0</ele><time>2026-04-18T15:20:07.276Z</time></trkpt><trkpt lat="44.7299637" lon="7.9907203"><ele>195.0</ele><time>2026-04-18T15:20:08.27Z</time></trkpt><trkpt lat="44.7299017" lon="7.990846"><ele>195.0</ele><time>2026-04-18T15:20:09.268Z</time></trkpt><trkpt lat="44.7298391" lon="7.9909495"><ele>195.0</ele><time>2026-04-18T15:20:10.263Z</time></trkpt><trkpt lat="44.7297783" lon="7.9910045"><ele>195.0</ele><time>2026-04-18T15:20:11.272Z</time></trkpt><trkpt lat="44.729715" lon="7.9910017"><ele>195.42857142857142</ele><time>2026-04-18T15:20:12.269Z</time></trkpt><trkpt lat="44.7296433" lon="7.990995"><ele>195.85714285714283</ele><time>2026-04-18T15:20:13.267Z</time></trkpt><trkpt lat="44.7295733" lon="7.991"><ele>196.28571428571428</ele><time>2026-04-18T15:20:14.264Z</time></trkpt><trkpt lat="44.72951" lon="7.9910367"><ele>196.71428571428572</ele><time>2026-04-18T15:20:15.27Z</time></trkpt><trkpt lat="44.7294617" lon="7.9911067"><ele>197.14285714285714</ele><time>2026-04-18T15:20:16.271Z</time></trkpt><trkpt lat="44.7294533" lon="7.9912017"><ele>197.57142857142858</ele><time>2026-04-18T15:20:17.27Z</time></trkpt><trkpt lat="44.7294633" lon="7.9913033"><ele>198.0</ele><time>2026-04-18T15:20:18.271Z</time></trkpt><trkpt lat="44.7294883" lon="7.9914317"><ele>198.0</ele><time>2026-04-18T15:20:19.277Z</time></trkpt><trkpt lat="44.7295133" lon="7.9915867"><ele>198.0</ele><time>2026-04-18T15:20:20.263Z</time></trkpt><trkpt lat="44.7295217" lon="7.99175"><ele>198.0</ele><time>2026-04-18T15:20:21.264Z</time></trkpt><trkpt lat="44.7295083" lon="7.9919183"><ele>198.0</ele><time>2026-04-18T15:20:22.264Z</time></trkpt><trkpt lat="44.7294667" lon="7.992095"><ele>197.25</ele><time>2026-04-18T15:20:23.262Z</time></trkpt><trkpt lat="44.7294083" lon="7.992285"><ele>196.5</ele><time>2026-04-18T15:20:24.265Z</time></trkpt><trkpt lat="44.729355" lon="7.9924733"><ele>195.75</ele><time>2026-04-18T15:20:25.271Z</time></trkpt><trkpt lat="44.7293" lon="7.9926667"><ele>195.0</ele><time>2026-04-18T15:20:26.275Z</time></trkpt><trkpt lat="44.7292433" lon="7.99286"><ele>194.66666666666669</ele><time>2026-04-18T15:20:27.263Z</time></trkpt><trkpt lat="44.7291833" lon="7.9930533"><ele>194.33333333333334</ele><time>2026-04-18T15:20:28.263Z</time></trkpt><trkpt lat="44.7291233" lon="7.99325"><ele>194.0</ele><time>2026-04-18T15:20:29.274Z</time></trkpt><trkpt lat="44.7290683" lon="7.9934483"><ele>194.75</ele><time>2026-04-18T15:20:30.27Z</time></trkpt><trkpt lat="44.729015" lon="7.9936433"><ele>195.5</ele><time>2026-04-18T15:20:31.272Z</time></trkpt><trkpt lat="44.7289617" lon="7.9938333"><ele>196.25</ele><time>2026-04-18T15:20:32.265Z</time></trkpt><trkpt lat="44.72891" lon="7.994025"><ele>197.0</ele><time>2026-04-18T15:20:33.277Z</time></trkpt><trkpt lat="44.7288567" lon="7.9942217"><ele>197.5</ele><time>2026-04-18T15:20:34.27Z</time></trkpt><trkpt lat="44.728805" lon="7.994415"><ele>198.0</ele><time>2026-04-18T15:20:35.267Z</time></trkpt><trkpt lat="44.7287533" lon="7.9946083"><ele>198.5</ele><time>2026-04-18T15:20:36.27Z</time></trkpt><trkpt lat="44.7287017" lon="7.9948017"><ele>199.0</ele><time>2026-04-18T15:20:37.277Z</time></trkpt><trkpt lat="44.7286533" lon="7.995"><ele>200.0</ele><time>2026-04-18T15:20:38.263Z</time></trkpt><trkpt lat="44.7286033" lon="7.9952017"><ele>201.0</ele><time>2026-04-18T15:20:39.272Z</time></trkpt><trkpt lat="44.7285517" lon="7.9954"><ele>202.0</ele><time>2026-04-18T15:20:40.268Z</time></trkpt><trkpt lat="44.7284967" lon="7.9955983"><ele>198.33333333333331</ele><time>2026-04-18T15:20:41.276Z</time></trkpt><trkpt lat="44.7284467" lon="7.9958"><ele>194.66666666666666</ele><time>2026-04-18T15:20:42.268Z</time></trkpt><trkpt lat="44.7283933" lon="7.9960033"><ele>191.0</ele><time>2026-04-18T15:20:43.274Z</time></trkpt><trkpt lat="44.7283367" lon="7.9962083"><ele>190.66666666666666</ele><time>2026-04-18T15:20:44.27Z</time></trkpt><trkpt lat="44.7282817" lon="7.99641"><ele>190.33333333333334</ele><time>2026-04-18T15:20:45.264Z</time></trkpt><trkpt lat="44.7282267" lon="7.996615"><ele>190.0</ele><time>2026-04-18T15:20:46.273Z</time></trkpt><trkpt lat="44.7281733" lon="7.9968217"><ele>190.66666666666669</ele><time>2026-04-18T15:20:47.274Z</time></trkpt><trkpt lat="44.7281183" lon="7.9970317"><ele>191.33333333333334</ele><time>2026-04-18T15:20:48.269Z</time></trkpt><trkpt lat="44.728065" lon="7.9972433"><ele>192.0</ele><time>2026-04-18T15:20:49.264Z</time></trkpt><trkpt lat="44.7280133" lon="7.9974517"><ele>192.0</ele><time>2026-04-18T15:20:50.27Z</time></trkpt><trkpt lat="44.7279583" lon="7.997655"><ele>192.0</ele><time>2026-04-18T15:20:51.266Z</time></trkpt><trkpt lat="44.7279033" lon="7.9978583"><ele>192.0</ele><time>2026-04-18T15:20:52.265Z</time></trkpt><trkpt lat="44.7278467" lon="7.9980667"><ele>192.0</ele><time>2026-04-18T15:20:53.28Z</time></trkpt><trkpt lat="44.7277933" lon="7.99827"><ele>192.0</ele><time>2026-04-18T15:20:54.261Z</time></trkpt><trkpt lat="44.7277333" lon="7.9984733"><ele>192.0</ele><time>2026-04-18T15:20:55.268Z</time></trkpt><trkpt lat="44.7276733" lon="7.9986767"><ele>190.0</ele><time>2026-04-18T15:20:56.265Z</time></trkpt><trkpt lat="44.7276117" lon="7.9988833"><ele>188.0</ele><time>2026-04-18T15:20:57.27Z</time></trkpt><trkpt lat="44.7275517" lon="7.9990833"><ele>186.0</ele><time>2026-04-18T15:20:58.267Z</time></trkpt><trkpt lat="44.7274983" lon="7.9992817"><ele>185.75</ele><time>2026-04-18T15:20:59.267Z</time></trkpt><trkpt lat="44.7274533" lon="7.99948"><ele>185.5</ele><time>2026-04-18T15:21:00.269Z</time></trkpt><trkpt lat="44.7274233" lon="7.9996783"><ele>185.25</ele><time>2026-04-18T15:21:01.272Z</time></trkpt><trkpt lat="44.7274117" lon="7.99988"><ele>185.0</ele><time>2026-04-18T15:21:02.262Z</time></trkpt><trkpt lat="44.7274217" lon="8.0000817"><ele>185.0</ele><time>2026-04-18T15:21:03.261Z</time></trkpt><trkpt lat="44.7274467" lon="8.0002817"><ele>185.0</ele><time>2026-04-18T15:21:04.268Z</time></trkpt><trkpt lat="44.72748" lon="8.0004833"><ele>185.0</ele><time>2026-04-18T15:21:05.268Z</time></trkpt><trkpt lat="44.7275183" lon="8.0006817"><ele>185.0</ele><time>2026-04-18T15:21:06.265Z</time></trkpt><trkpt lat="44.7275633" lon="8.0008767"><ele>184.75</ele><time>2026-04-18T15:21:07.273Z</time></trkpt><trkpt lat="44.7276033" lon="8.0010717"><ele>184.5</ele><time>2026-04-18T15:21:08.263Z</time></trkpt><trkpt lat="44.727645" lon="8.00127"><ele>184.25</ele><time>2026-04-18T15:21:09.272Z</time></trkpt><trkpt lat="44.7276883" lon="8.00147"><ele>184.0</ele><time>2026-04-18T15:21:10.269Z</time></trkpt><trkpt lat="44.7277383" lon="8.0016733"><ele>184.66666666666669</ele><time>2026-04-18T15:21:11.292Z</time></trkpt><trkpt lat="44.7277867" lon="8.001875"><ele>185.33333333333334</ele><time>2026-04-18T15:21:12.271Z</time></trkpt><trkpt lat="44.727835" lon="8.0020817"><ele>186.0</ele><time>2026-04-18T15:21:13.272Z</time></trkpt><trkpt lat="44.727885" lon="8.00229"><ele>186.0</ele><time>2026-04-18T15:21:14.272Z</time></trkpt><trkpt lat="44.727935" lon="8.0024967"><ele>186.0</ele><time>2026-04-18T15:21:15.274Z</time></trkpt><trkpt lat="44.7279817" lon="8.0027033"><ele>186.0</ele><time>2026-04-18T15:21:16.275Z</time></trkpt><trkpt lat="44.7280283" lon="8.0029117"><ele>184.66666666666666</ele><time>2026-04-18T15:21:17.292Z</time></trkpt><trkpt lat="44.7280733" lon="8.003125"><ele>183.33333333333331</ele><time>2026-04-18T15:21:18.264Z</time></trkpt><trkpt lat="44.72812" lon="8.0033367"><ele>182.0</ele><time>2026-04-18T15:21:19.267Z</time></trkpt><trkpt lat="44.7281667" lon="8.0035483"><ele>182.0</ele><time>2026-04-18T15:21:20.275Z</time></trkpt><trkpt lat="44.7282117" lon="8.0037583"><ele>182.0</ele><time>2026-04-18T15:21:21.271Z</time></trkpt><trkpt lat="44.7282567" lon="8.003965"><ele>182.0</ele><time>2026-04-18T15:21:22.275Z</time></trkpt><trkpt lat="44.7283017" lon="8.0041717"><ele>182.0</ele><time>2026-04-18T15:21:23.291Z</time></trkpt><trkpt lat="44.728345" lon="8.0043833"><ele>182.0</ele><time>2026-04-18T15:21:24.265Z</time></trkpt><trkpt lat="44.72839" lon="8.004595"><ele>182.0</ele><time>2026-04-18T15:21:25.272Z</time></trkpt><trkpt lat="44.728435" lon="8.0048067"><ele>181.66666666666666</ele><time>2026-04-18T15:21:26.272Z</time></trkpt><trkpt lat="44.7284833" lon="8.0050167"><ele>181.33333333333334</ele><time>2026-04-18T15:21:27.269Z</time></trkpt><trkpt lat="44.7285283" lon="8.0052267"><ele>181.0</ele><time>2026-04-18T15:21:28.271Z</time></trkpt><trkpt lat="44.728575" lon="8.0054333"><ele>181.0</ele><time>2026-04-18T15:21:29.277Z</time></trkpt><trkpt lat="44.7286183" lon="8.0056383"><ele>181.0</ele><time>2026-04-18T15:21:30.275Z</time></trkpt><trkpt lat="44.7286617" lon="8.0058383"><ele>181.0</ele><time>2026-04-18T15:21:31.272Z</time></trkpt><trkpt lat="44.7287033" lon="8.0060383"><ele>181.0</ele><time>2026-04-18T15:21:32.269Z</time></trkpt><trkpt lat="44.7287467" lon="8.0062367"><ele>181.0</ele><time>2026-04-18T15:21:33.276Z</time></trkpt><trkpt lat="44.72879" lon="8.0064333"><ele>181.0</ele><time>2026-04-18T15:21:34.276Z</time></trkpt><trkpt lat="44.7288333" lon="8.0066283"><ele>181.0</ele><time>2026-04-18T15:21:35.278Z</time></trkpt><trkpt lat="44.7288717" lon="8.0068217"><ele>181.0</ele><time>2026-04-18T15:21:36.274Z</time></trkpt><trkpt lat="44.7289117" lon="8.007005"><ele>181.0</ele><time>2026-04-18T15:21:37.265Z</time></trkpt><trkpt lat="44.7289483" lon="8.0071717"><ele>181.0</ele><time>2026-04-18T15:21:38.272Z</time></trkpt><trkpt lat="44.7289767" lon="8.00732"><ele>181.0</ele><time>2026-04-18T15:21:39.264Z</time></trkpt><trkpt lat="44.7289883" lon="8.00745"><ele>181.0</ele><time>2026-04-18T15:21:40.273Z</time></trkpt><trkpt lat="44.72898" lon="8.0075617"><ele>181.0</ele><time>2026-04-18T15:21:41.294Z</time></trkpt><trkpt lat="44.7289483" lon="8.007675"><ele>181.0</ele><time>2026-04-18T15:21:42.271Z</time></trkpt><trkpt lat="44.728895" lon="8.0077733"><ele>181.0</ele><time>2026-04-18T15:21:43.272Z</time></trkpt><trkpt lat="44.7288267" lon="8.0078583"><ele>181.0</ele><time>2026-04-18T15:21:44.263Z</time></trkpt><trkpt lat="44.7287417" lon="8.0079183"><ele>181.0</ele><time>2026-04-18T15:21:45.269Z</time></trkpt><trkpt lat="44.728645" lon="8.0079533"><ele>181.0</ele><time>2026-04-18T15:21:46.266Z</time></trkpt><trkpt lat="44.7285483" lon="8.00798"><ele>180.8</ele><time>2026-04-18T15:21:47.286Z</time></trkpt><trkpt lat="44.728455" lon="8.007995"><ele>180.60000000000002</ele><time>2026-04-18T15:21:48.268Z</time></trkpt><trkpt lat="44.7283733" lon="8.0080017"><ele>180.4</ele><time>2026-04-18T15:21:49.267Z</time></trkpt><trkpt lat="44.728295" lon="8.0080083"><ele>180.2</ele><time>2026-04-18T15:21:50.27Z</time></trkpt><trkpt lat="44.7281767" lon="8.0080033"><ele>180.0</ele><time>2026-04-18T15:21:52.268Z</time></trkpt><trkpt lat="44.7280517" lon="8.0080317"><ele>180.0</ele><time>2026-04-18T15:21:54.264Z</time></trkpt><trkpt lat="44.7279733" lon="8.0080567"><ele>180.0</ele><time>2026-04-18T15:21:55.264Z</time></trkpt><trkpt lat="44.7278783" lon="8.0080833"><ele>180.0</ele><time>2026-04-18T15:21:56.264Z</time></trkpt><trkpt lat="44.7277733" lon="8.0081167"><ele>180.0</ele><time>2026-04-18T15:21:57.264Z</time></trkpt><trkpt lat="44.7276517" lon="8.0081467"><ele>180.0</ele><time>2026-04-18T15:21:58.269Z</time></trkpt><trkpt lat="44.727525" lon="8.008175"><ele>179.75</ele><time>2026-04-18T15:21:59.328Z</time></trkpt><trkpt lat="44.7273917" lon="8.008195"><ele>179.5</ele><time>2026-04-18T15:22:00.269Z</time></trkpt><trkpt lat="44.7272583" lon="8.0082183"><ele>179.25</ele><time>2026-04-18T15:22:01.272Z</time></trkpt><trkpt lat="44.7271217" lon="8.0082417"><ele>179.0</ele><time>2026-04-18T15:22:02.264Z</time></trkpt><trkpt lat="44.72699" lon="8.00827"><ele>178.75</ele><time>2026-04-18T15:22:03.267Z</time></trkpt><trkpt lat="44.7268617" lon="8.0083017"><ele>178.5</ele><time>2026-04-18T15:22:04.264Z</time></trkpt><trkpt lat="44.726735" lon="8.0083317"><ele>178.25</ele><time>2026-04-18T15:22:05.27Z</time></trkpt><trkpt lat="44.7266083" lon="8.0083533"><ele>178.0</ele><time>2026-04-18T15:22:06.268Z</time></trkpt><trkpt lat="44.72648" lon="8.0083767"><ele>178.0</ele><time>2026-04-18T15:22:07.273Z</time></trkpt><trkpt lat="44.7263533" lon="8.008405"><ele>178.0</ele><time>2026-04-18T15:22:08.27Z</time></trkpt><trkpt lat="44.72622" lon="8.0084367"><ele>178.0</ele><time>2026-04-18T15:22:09.273Z</time></trkpt><trkpt lat="44.7260933" lon="8.0084667"><ele>178.0</ele><time>2026-04-18T15:22:10.273Z</time></trkpt><trkpt lat="44.725965" lon="8.0084933"><ele>178.5</ele><time>2026-04-18T15:22:11.299Z</time></trkpt><trkpt lat="44.7258383" lon="8.00852"><ele>179.0</ele><time>2026-04-18T15:22:12.272Z</time></trkpt><trkpt lat="44.7257033" lon="8.0085483"><ele>179.5</ele><time>2026-04-18T15:22:13.261Z</time></trkpt><trkpt lat="44.7255783" lon="8.0085767"><ele>180.0</ele><time>2026-04-18T15:22:14.271Z</time></trkpt><trkpt lat="44.7254533" lon="8.008605"><ele>180.0</ele><time>2026-04-18T15:22:15.274Z</time></trkpt><trkpt lat="44.72534" lon="8.0086283"><ele>180.0</ele><time>2026-04-18T15:22:16.272Z</time></trkpt><trkpt lat="44.7252317" lon="8.0086483"><ele>180.0</ele><time>2026-04-18T15:22:17.289Z</time></trkpt><trkpt lat="44.7251233" lon="8.0086717"><ele>180.0</ele><time>2026-04-18T15:22:18.262Z</time></trkpt><trkpt lat="44.7250033" lon="8.0087017"><ele>180.25</ele><time>2026-04-18T15:22:19.268Z</time></trkpt><trkpt lat="44.7248817" lon="8.0087317"><ele>180.5</ele><time>2026-04-18T15:22:20.268Z</time></trkpt><trkpt lat="44.7247533" lon="8.0087633"><ele>180.75</ele><time>2026-04-18T15:22:21.278Z</time></trkpt><trkpt lat="44.72463" lon="8.0087883"><ele>181.0</ele><time>2026-04-18T15:22:22.261Z</time></trkpt><trkpt lat="44.7245133" lon="8.0088117"><ele>181.0</ele><time>2026-04-18T15:22:23.293Z</time></trkpt><trkpt lat="44.724395" lon="8.0088367"><ele>181.0</ele><time>2026-04-18T15:22:24.267Z</time></trkpt><trkpt lat="44.72428" lon="8.0088583"><ele>181.0</ele><time>2026-04-18T15:22:25.264Z</time></trkpt><trkpt lat="44.7241683" lon="8.0088817"><ele>181.0</ele><time>2026-04-18T15:22:26.269Z</time></trkpt><trkpt lat="44.72406" lon="8.0089083"><ele>181.0</ele><time>2026-04-18T15:22:27.269Z</time></trkpt><trkpt lat="44.7239467" lon="8.0089367"><ele>181.0</ele><time>2026-04-18T15:22:28.266Z</time></trkpt><trkpt lat="44.7238283" lon="8.008965"><ele>181.0</ele><time>2026-04-18T15:22:29.27Z</time></trkpt><trkpt lat="44.7237033" lon="8.0089967"><ele>181.0</ele><time>2026-04-18T15:22:30.26Z</time></trkpt><trkpt lat="44.723575" lon="8.0090267"><ele>182.0</ele><time>2026-04-18T15:22:31.267Z</time></trkpt><trkpt lat="44.72344" lon="8.0090583"><ele>183.0</ele><time>2026-04-18T15:22:32.269Z</time></trkpt><trkpt lat="44.7233" lon="8.0090883"><ele>184.0</ele><time>2026-04-18T15:22:33.267Z</time></trkpt><trkpt lat="44.7231583" lon="8.00912"><ele>185.0</ele><time>2026-04-18T15:22:34.269Z</time></trkpt><trkpt lat="44.7230167" lon="8.00915"><ele>182.75</ele><time>2026-04-18T15:22:35.264Z</time></trkpt><trkpt lat="44.7228717" lon="8.0091817"><ele>180.5</ele><time>2026-04-18T15:22:36.272Z</time></trkpt><trkpt lat="44.7227283" lon="8.00921"><ele>178.25</ele><time>2026-04-18T15:22:37.271Z</time></trkpt><trkpt lat="44.72259" lon="8.00924"><ele>176.0</ele><time>2026-04-18T15:22:38.271Z</time></trkpt><trkpt lat="44.722455" lon="8.0092667"><ele>176.0</ele><time>2026-04-18T15:22:39.274Z</time></trkpt><trkpt lat="44.722335" lon="8.0092917"><ele>176.0</ele><time>2026-04-18T15:22:40.268Z</time></trkpt><trkpt lat="44.722225" lon="8.0093167"><ele>176.0</ele><time>2026-04-18T15:22:41.303Z</time></trkpt><trkpt lat="44.7221217" lon="8.0093367"><ele>176.0</ele><time>2026-04-18T15:22:42.266Z</time></trkpt><trkpt lat="44.7220267" lon="8.0093567"><ele>176.0</ele><time>2026-04-18T15:22:43.271Z</time></trkpt><trkpt lat="44.7219417" lon="8.0093733"><ele>175.83333333333331</ele><time>2026-04-18T15:22:44.268Z</time></trkpt><trkpt lat="44.7218583" lon="8.00939"><ele>175.66666666666666</ele><time>2026-04-18T15:22:45.266Z</time></trkpt><trkpt lat="44.7217717" lon="8.0094083"><ele>175.5</ele><time>2026-04-18T15:22:46.274Z</time></trkpt><trkpt lat="44.7216883" lon="8.0094283"><ele>175.33333333333334</ele><time>2026-04-18T15:22:47.298Z</time></trkpt><trkpt lat="44.72161" lon="8.0094433"><ele>175.16666666666669</ele><time>2026-04-18T15:22:48.272Z</time></trkpt><trkpt lat="44.72154" lon="8.0094517"><ele>175.0</ele><time>2026-04-18T15:22:49.273Z</time></trkpt><trkpt lat="44.721425" lon="8.009425"><ele>175.0</ele><time>2026-04-18T15:22:51.272Z</time></trkpt><trkpt lat="44.721325" lon="8.0093233"><ele>175.0</ele><time>2026-04-18T15:22:53.294Z</time></trkpt><trkpt lat="44.7212167" lon="8.0092783"><ele>175.0</ele><time>2026-04-18T15:22:55.283Z</time></trkpt><trkpt lat="44.72112" lon="8.0093517"><ele>175.0</ele><time>2026-04-18T15:22:57.276Z</time></trkpt><trkpt lat="44.7210533" lon="8.0094817"><ele>174.66666666666669</ele><time>2026-04-18T15:22:59.272Z</time></trkpt><trkpt lat="44.7210083" lon="8.009545"><ele>174.33333333333334</ele><time>2026-04-18T15:23:00.274Z</time></trkpt><trkpt lat="44.72095" lon="8.0095983"><ele>174.0</ele><time>2026-04-18T15:23:01.274Z</time></trkpt><trkpt lat="44.7208733" lon="8.0096383"><ele>173.66666666666666</ele><time>2026-04-18T15:23:02.267Z</time></trkpt><trkpt lat="44.7207717" lon="8.0096633"><ele>173.33333333333331</ele><time>2026-04-18T15:23:03.265Z</time></trkpt><trkpt lat="44.720655" lon="8.0096883"><ele>173.0</ele><time>2026-04-18T15:23:04.276Z</time></trkpt><trkpt lat="44.720525" lon="8.009715"><ele>172.0</ele><time>2026-04-18T15:23:05.266Z</time></trkpt><trkpt lat="44.7192883" lon="8.010005"><ele>172.0</ele><time>2026-04-18T15:23:18.262Z</time></trkpt><trkpt lat="44.719155" lon="8.0100317"><ele>172.0</ele><time>2026-04-18T15:23:19.271Z</time></trkpt><trkpt lat="44.7190183" lon="8.010055"><ele>172.0</ele><time>2026-04-18T15:23:20.271Z</time></trkpt><trkpt lat="44.718885" lon="8.0100767"><ele>172.0</ele><time>2026-04-18T15:23:21.265Z</time></trkpt><trkpt lat="44.7187533" lon="8.0101033"><ele>172.0</ele><time>2026-04-18T15:23:22.263Z</time></trkpt><trkpt lat="44.7186383" lon="8.0101267"><ele>172.0</ele><time>2026-04-18T15:23:23.299Z</time></trkpt><trkpt lat="44.7185283" lon="8.01015"><ele>172.0</ele><time>2026-04-18T15:23:24.26Z</time></trkpt><trkpt lat="44.7184183" lon="8.0101683"><ele>172.0</ele><time>2026-04-18T15:23:25.263Z</time></trkpt><trkpt lat="44.7183167" lon="8.0101867"><ele>172.0</ele><time>2026-04-18T15:23:26.267Z</time></trkpt><trkpt lat="44.71822" lon="8.010205"><ele>172.0</ele><time>2026-04-18T15:23:27.276Z</time></trkpt><trkpt lat="44.718135" lon="8.0102183"><ele>172.0</ele><time>2026-04-18T15:23:28.262Z</time></trkpt><trkpt lat="44.71806" lon="8.0102333"><ele>172.0</ele><time>2026-04-18T15:23:29.265Z</time></trkpt><trkpt lat="44.717945" lon="8.010265"><ele>172.0</ele><time>2026-04-18T15:23:31.263Z</time></trkpt><trkpt lat="44.7177283" lon="8.010315"><ele>172.00000000000003</ele><time>2026-04-18T15:23:35.269Z</time></trkpt><trkpt lat="44.7176667" lon="8.0103383"><ele>172.0</ele><time>2026-04-18T15:23:36.262Z</time></trkpt><trkpt lat="44.7176067" lon="8.0103767"><ele>172.0</ele><time>2026-04-18T15:23:37.27Z</time></trkpt><trkpt lat="44.7175517" lon="8.0104283"><ele>172.0</ele><time>2026-04-18T15:23:38.274Z</time></trkpt><trkpt lat="44.7175" lon="8.0104867"><ele>172.0</ele><time>2026-04-18T15:23:39.27Z</time></trkpt><trkpt lat="44.7174483" lon="8.0105533"><ele>172.00000000000003</ele><time>2026-04-18T15:23:40.272Z</time></trkpt><trkpt lat="44.7173967" lon="8.0106267"><ele>172.0</ele><time>2026-04-18T15:23:41.32Z</time></trkpt><trkpt lat="44.7173317" lon="8.0107033"><ele>172.0</ele><time>2026-04-18T15:23:42.272Z</time></trkpt><trkpt lat="44.71726" lon="8.0107883"><ele>172.0</ele><time>2026-04-18T15:23:43.274Z</time></trkpt><trkpt lat="44.7171933" lon="8.0108867"><ele>172.0</ele><time>2026-04-18T15:23:44.272Z</time></trkpt><trkpt lat="44.71712" lon="8.01099"><ele>172.0</ele><time>2026-04-18T15:23:45.269Z</time></trkpt><trkpt lat="44.7170483" lon="8.0111017"><ele>172.0</ele><time>2026-04-18T15:23:46.268Z</time></trkpt><trkpt lat="44.7169667" lon="8.011225"><ele>171.5</ele><time>2026-04-18T15:23:47.306Z</time></trkpt><trkpt lat="44.716875" lon="8.0113583"><ele>171.0</ele><time>2026-04-18T15:23:48.264Z</time></trkpt><trkpt lat="44.71677" lon="8.011505"><ele>170.5</ele><time>2026-04-18T15:23:49.263Z</time></trkpt><trkpt lat="44.716665" lon="8.0116633"><ele>170.0</ele><time>2026-04-18T15:23:50.266Z</time></trkpt><trkpt lat="44.71656" lon="8.0118017"><ele>170.0</ele><time>2026-04-18T15:23:51.298Z</time></trkpt><trkpt lat="44.7164633" lon="8.011935"><ele>170.0</ele><time>2026-04-18T15:23:52.271Z</time></trkpt><trkpt lat="44.7162767" lon="8.0121933"><ele>170.0</ele><time>2026-04-18T15:23:54.275Z</time></trkpt><trkpt lat="44.7161817" lon="8.01234"><ele>170.0</ele><time>2026-04-18T15:23:55.26Z</time></trkpt><trkpt lat="44.7160867" lon="8.012485"><ele>170.0</ele><time>2026-04-18T15:23:56.274Z</time></trkpt><trkpt lat="44.716" lon="8.0126233"><ele>170.0</ele><time>2026-04-18T15:23:57.279Z</time></trkpt><trkpt lat="44.71592" lon="8.0127417"><ele>170.0</ele><time>2026-04-18T15:23:58.271Z</time></trkpt><trkpt lat="44.7158467" lon="8.0128467"><ele>170.0</ele><time>2026-04-18T15:23:59.276Z</time></trkpt><trkpt lat="44.7157783" lon="8.0129367"><ele>170.0</ele><time>2026-04-18T15:24:00.286Z</time></trkpt><trkpt lat="44.7157167" lon="8.0130217"><ele>170.0</ele><time>2026-04-18T15:24:01.285Z</time></trkpt><trkpt lat="44.7156483" lon="8.013105"><ele>170.0</ele><time>2026-04-18T15:24:02.266Z</time></trkpt><trkpt lat="44.7155767" lon="8.013185"><ele>170.0</ele><time>2026-04-18T15:24:03.306Z</time></trkpt><trkpt lat="44.7155067" lon="8.0132583"><ele>170.0</ele><time>2026-04-18T15:24:04.281Z</time></trkpt><trkpt lat="44.7154367" lon="8.0133267"><ele>170.0</ele><time>2026-04-18T15:24:05.268Z</time></trkpt><trkpt lat="44.7153633" lon="8.0133883"><ele>170.0</ele><time>2026-04-18T15:24:06.289Z</time></trkpt><trkpt lat="44.7152933" lon="8.0134367"><ele>170.0</ele><time>2026-04-18T15:24:07.277Z</time></trkpt><trkpt lat="44.715225" lon="8.013475"><ele>170.0</ele><time>2026-04-18T15:24:08.28Z</time></trkpt><trkpt lat="44.7151567" lon="8.01351"><ele>170.0</ele><time>2026-04-18T15:24:09.274Z</time></trkpt><trkpt lat="44.7150917" lon="8.01354"><ele>170.0</ele><time>2026-04-18T15:24:10.276Z</time></trkpt><trkpt lat="44.7150317" lon="8.0135783"><ele>170.0</ele><time>2026-04-18T15:24:11.301Z</time></trkpt><trkpt lat="44.7149767" lon="8.01363"><ele>170.0</ele><time>2026-04-18T15:24:12.299Z</time></trkpt><trkpt lat="44.7149267" lon="8.0137817"><ele>170.0</ele><time>2026-04-18T15:24:14.274Z</time></trkpt><trkpt lat="44.7149317" lon="8.01397"><ele>170.0</ele><time>2026-04-18T15:24:16.276Z</time></trkpt><trkpt lat="44.7149233" lon="8.01406"><ele>170.0</ele><time>2026-04-18T15:24:17.293Z</time></trkpt><trkpt lat="44.7149033" lon="8.014155"><ele>170.0</ele><time>2026-04-18T15:24:18.287Z</time></trkpt><trkpt lat="44.71487" lon="8.0142433"><ele>170.0</ele><time>2026-04-18T15:24:19.273Z</time></trkpt><trkpt lat="44.7148233" lon="8.0143317"><ele>170.0</ele><time>2026-04-18T15:24:20.266Z</time></trkpt><trkpt lat="44.71477" lon="8.0144367"><ele>170.0</ele><time>2026-04-18T15:24:21.277Z</time></trkpt><trkpt lat="44.7147017" lon="8.0145533"><ele>170.0</ele><time>2026-04-18T15:24:22.269Z</time></trkpt><trkpt lat="44.7146183" lon="8.0146733"><ele>170.0</ele><time>2026-04-18T15:24:23.319Z</time></trkpt><trkpt lat="44.7145233" lon="8.0148083"><ele>170.0</ele><time>2026-04-18T15:24:24.267Z</time></trkpt><trkpt lat="44.7144217" lon="8.0149533"><ele>170.0</ele><time>2026-04-18T15:24:25.276Z</time></trkpt><trkpt lat="44.7143317" lon="8.01509"><ele>170.0</ele><time>2026-04-18T15:24:26.263Z</time></trkpt><trkpt lat="44.7142517" lon="8.0152183"><ele>170.0</ele><time>2026-04-18T15:24:27.276Z</time></trkpt><trkpt lat="44.7141817" lon="8.01534"><ele>169.83333333333331</ele><time>2026-04-18T15:24:28.265Z</time></trkpt><trkpt lat="44.714115" lon="8.01545"><ele>169.66666666666666</ele><time>2026-04-18T15:24:29.352Z</time></trkpt><trkpt lat="44.71407" lon="8.0155517"><ele>169.5</ele><time>2026-04-18T15:24:30.259Z</time></trkpt><trkpt lat="44.71404" lon="8.0156567"><ele>169.33333333333334</ele><time>2026-04-18T15:24:31.26Z</time></trkpt><trkpt lat="44.7140283" lon="8.01577"><ele>169.16666666666669</ele><time>2026-04-18T15:24:32.263Z</time></trkpt><trkpt lat="44.7140433" lon="8.0158917"><ele>169.0</ele><time>2026-04-18T15:24:33.262Z</time></trkpt><trkpt lat="44.71407" lon="8.0160367"><ele>168.66666666666669</ele><time>2026-04-18T15:24:34.266Z</time></trkpt><trkpt lat="44.71411" lon="8.0162067"><ele>168.33333333333334</ele><time>2026-04-18T15:24:35.264Z</time></trkpt><trkpt lat="44.71416" lon="8.0165967"><ele>168.0</ele><time>2026-04-18T15:24:37.259Z</time></trkpt><trkpt lat="44.7141733" lon="8.016815"><ele>168.0</ele><time>2026-04-18T15:24:38.258Z</time></trkpt><trkpt lat="44.714165" lon="8.0170483"><ele>168.0</ele><time>2026-04-18T15:24:39.26Z</time></trkpt><trkpt lat="44.7141433" lon="8.0172933"><ele>168.0</ele><time>2026-04-18T15:24:40.262Z</time></trkpt><trkpt lat="44.7141133" lon="8.0175367"><ele>168.0</ele><time>2026-04-18T15:24:41.29Z</time></trkpt><trkpt lat="44.7140783" lon="8.01778"><ele>168.0</ele><time>2026-04-18T15:24:42.262Z</time></trkpt><trkpt lat="44.71404" lon="8.0180183"><ele>168.0</ele><time>2026-04-18T15:24:43.258Z</time></trkpt><trkpt lat="44.7139983" lon="8.0182467"><ele>167.66666666666666</ele><time>2026-04-18T15:24:44.259Z</time></trkpt><trkpt lat="44.71395" lon="8.01847"><ele>167.33333333333331</ele><time>2026-04-18T15:24:45.266Z</time></trkpt><trkpt lat="44.7138983" lon="8.0186867"><ele>167.0</ele><time>2026-04-18T15:24:46.26Z</time></trkpt><trkpt lat="44.7138433" lon="8.018895"><ele>167.0</ele><time>2026-04-18T15:24:47.292Z</time></trkpt><trkpt lat="44.713785" lon="8.019095"><ele>167.0</ele><time>2026-04-18T15:24:48.263Z</time></trkpt><trkpt lat="44.7137267" lon="8.01929"><ele>167.0</ele><time>2026-04-18T15:24:49.26Z</time></trkpt><trkpt lat="44.7136617" lon="8.019485"><ele>167.0</ele><time>2026-04-18T15:24:50.262Z</time></trkpt><trkpt lat="44.713595" lon="8.0196767"><ele>167.0</ele><time>2026-04-18T15:24:51.258Z</time></trkpt><trkpt lat="44.7135233" lon="8.01987"><ele>167.0</ele><time>2026-04-18T15:24:52.269Z</time></trkpt><trkpt lat="44.7134483" lon="8.0200717"><ele>167.0</ele><time>2026-04-18T15:24:53.292Z</time></trkpt><trkpt lat="44.7133717" lon="8.0202783"><ele>167.0</ele><time>2026-04-18T15:24:54.262Z</time></trkpt><trkpt lat="44.7133" lon="8.0204817"><ele>167.0</ele><time>2026-04-18T15:24:55.258Z</time></trkpt><trkpt lat="44.7132367" lon="8.0206683"><ele>167.0</ele><time>2026-04-18T15:24:56.262Z</time></trkpt></trkseg><trkseg><trkpt lat="44.7096917" lon="8.0260717"><ele>168.0</ele><time>2026-04-18T15:25:59.384Z</time></trkpt><trkpt lat="44.7096183" lon="8.0260983"><ele>168.0</ele><time>2026-04-18T15:26:03.375Z</time></trkpt><trkpt lat="44.7094667" lon="8.0261917"><ele>168.0</ele><time>2026-04-18T15:26:06.263Z</time></trkpt><trkpt lat="44.70942" lon="8.0262567"><ele>168.0</ele><time>2026-04-18T15:26:07.261Z</time></trkpt><trkpt lat="44.70939" lon="8.0263383"><ele>168.0</ele><time>2026-04-18T15:26:08.271Z</time></trkpt><trkpt lat="44.70938" lon="8.0264267"><ele>168.0</ele><time>2026-04-18T15:26:09.267Z</time></trkpt><trkpt lat="44.7093817" lon="8.0265217"><ele>167.8</ele><time>2026-04-18T15:26:10.267Z</time></trkpt><trkpt lat="44.7093967" lon="8.026615"><ele>167.60000000000002</ele><time>2026-04-18T15:26:11.265Z</time></trkpt><trkpt lat="44.7094283" lon="8.0266967"><ele>167.39999999999998</ele><time>2026-04-18T15:26:12.268Z</time></trkpt><trkpt lat="44.7095183" lon="8.0267833"><ele>167.2</ele><time>2026-04-18T15:26:13.269Z</time></trkpt><trkpt lat="44.7096067" lon="8.0268733"><ele>167.0</ele><time>2026-04-18T15:26:14.268Z</time></trkpt><trkpt lat="44.7097" lon="8.0269667"><ele>167.5</ele><time>2026-04-18T15:26:15.267Z</time></trkpt><trkpt lat="44.7097983" lon="8.0270567"><ele>168.0</ele><time>2026-04-18T15:26:16.265Z</time></trkpt><trkpt lat="44.7098967" lon="8.0271483"><ele>168.5</ele><time>2026-04-18T15:26:17.265Z</time></trkpt><trkpt lat="44.7099967" lon="8.0272467"><ele>169.0</ele><time>2026-04-18T15:26:18.263Z</time></trkpt><trkpt lat="44.7101" lon="8.0273483"><ele>169.0</ele><time>2026-04-18T15:26:19.265Z</time></trkpt><trkpt lat="44.7102117" lon="8.027445"><ele>169.0</ele><time>2026-04-18T15:26:20.264Z</time></trkpt><trkpt lat="44.71032" lon="8.0275417"><ele>169.0</ele><time>2026-04-18T15:26:21.263Z</time></trkpt><trkpt lat="44.710435" lon="8.0276433"><ele>169.0</ele><time>2026-04-18T15:26:22.267Z</time></trkpt><trkpt lat="44.7105483" lon="8.0277417"><ele>167.5</ele><time>2026-04-18T15:26:23.269Z</time></trkpt><trkpt lat="44.7106583" lon="8.0278433"><ele>166.0</ele><time>2026-04-18T15:26:24.272Z</time></trkpt><trkpt lat="44.7107667" lon="8.0279467"><ele>164.5</ele><time>2026-04-18T15:26:25.263Z</time></trkpt><trkpt lat="44.71087" lon="8.0280467"><ele>163.0</ele><time>2026-04-18T15:26:26.274Z</time></trkpt><trkpt lat="44.7109683" lon="8.02814"><ele>163.0</ele><time>2026-04-18T15:26:27.269Z</time></trkpt><trkpt lat="44.7110567" lon="8.028225"><ele>163.0</ele><time>2026-04-18T15:26:28.295Z</time></trkpt><trkpt lat="44.711135" lon="8.0283"><ele>163.0</ele><time>2026-04-18T15:26:29.265Z</time></trkpt><trkpt lat="44.7112067" lon="8.0283767"><ele>163.0</ele><time>2026-04-18T15:26:30.27Z</time></trkpt><trkpt lat="44.7112633" lon="8.028445"><ele>163.0</ele><time>2026-04-18T15:26:31.266Z</time></trkpt><trkpt lat="44.7113133" lon="8.0285133"><ele>163.0</ele><time>2026-04-18T15:26:32.27Z</time></trkpt><trkpt lat="44.71136" lon="8.02859"><ele>163.16666666666669</ele><time>2026-04-18T15:26:33.268Z</time></trkpt><trkpt lat="44.711395" lon="8.0286833"><ele>163.33333333333334</ele><time>2026-04-18T15:26:34.268Z</time></trkpt><trkpt lat="44.7114317" lon="8.0287683"><ele>163.5</ele><time>2026-04-18T15:26:35.266Z</time></trkpt><trkpt lat="44.7114717" lon="8.02884"><ele>163.66666666666666</ele><time>2026-04-18T15:26:36.263Z</time></trkpt><trkpt lat="44.7115683" lon="8.0288867"><ele>163.83333333333331</ele><time>2026-04-18T15:26:38.271Z</time></trkpt><trkpt lat="44.711665" lon="8.0288"><ele>164.0</ele><time>2026-04-18T15:26:40.264Z</time></trkpt><trkpt lat="44.7116983" lon="8.02871"><ele>164.0</ele><time>2026-04-18T15:26:41.262Z</time></trkpt><trkpt lat="44.7117133" lon="8.0285917"><ele>164.0</ele><time>2026-04-18T15:26:42.271Z</time></trkpt><trkpt lat="44.7117267" lon="8.02847"><ele>164.0</ele><time>2026-04-18T15:26:43.277Z</time></trkpt><trkpt lat="44.7117467" lon="8.0283583"><ele>164.0</ele><time>2026-04-18T15:26:44.268Z</time></trkpt><trkpt lat="44.7117767" lon="8.028265"><ele>164.0</ele><time>2026-04-18T15:26:45.271Z</time></trkpt><trkpt lat="44.7118317" lon="8.02814"><ele>164.0</ele><time>2026-04-18T15:26:47.266Z</time></trkpt><trkpt lat="44.711895" lon="8.0280283"><ele>164.0</ele><time>2026-04-18T15:27:21.268Z</time></trkpt><trkpt lat="44.711945" lon="8.027955"><ele>164.0</ele><time>2026-04-18T15:27:22.266Z</time></trkpt><trkpt lat="44.7120067" lon="8.0278517"><ele>164.0</ele><time>2026-04-18T15:27:23.267Z</time></trkpt><trkpt lat="44.71208" lon="8.02773"><ele>164.0</ele><time>2026-04-18T15:27:24.262Z</time></trkpt><trkpt lat="44.7121633" lon="8.02759"><ele>164.0</ele><time>2026-04-18T15:27:25.27Z</time></trkpt><trkpt lat="44.71226" lon="8.0274433"><ele>163.75</ele><time>2026-04-18T15:27:26.264Z</time></trkpt><trkpt lat="44.712365" lon="8.0272917"><ele>163.5</ele><time>2026-04-18T15:27:27.265Z</time></trkpt><trkpt lat="44.71247" lon="8.0271467"><ele>163.25</ele><time>2026-04-18T15:27:28.267Z</time></trkpt><trkpt lat="44.7125833" lon="8.027015"><ele>163.0</ele><time>2026-04-18T15:27:29.272Z</time></trkpt><trkpt lat="44.7127067" lon="8.0269083"><ele>162.75</ele><time>2026-04-18T15:27:30.272Z</time></trkpt><trkpt lat="44.71284" lon="8.02684"><ele>162.5</ele><time>2026-04-18T15:27:31.276Z</time></trkpt><trkpt lat="44.7129783" lon="8.0268017"><ele>162.25</ele><time>2026-04-18T15:27:32.268Z</time></trkpt><trkpt lat="44.71312" lon="8.0267917"><ele>162.0</ele><time>2026-04-18T15:27:33.28Z</time></trkpt><trkpt lat="44.7132567" lon="8.0268117"><ele>162.0</ele><time>2026-04-18T15:27:34.273Z</time></trkpt><trkpt lat="44.7133867" lon="8.0268633"><ele>162.0</ele><time>2026-04-18T15:27:35.271Z</time></trkpt><trkpt lat="44.7135167" lon="8.0269367"><ele>162.0</ele><time>2026-04-18T15:27:36.268Z</time></trkpt><trkpt lat="44.7136433" lon="8.02703"><ele>162.0</ele><time>2026-04-18T15:27:37.27Z</time></trkpt><trkpt lat="44.7137767" lon="8.02714"><ele>162.0</ele><time>2026-04-18T15:27:38.276Z</time></trkpt><trkpt lat="44.7139133" lon="8.027255"><ele>162.0</ele><time>2026-04-18T15:27:39.267Z</time></trkpt><trkpt lat="44.7140533" lon="8.0273717"><ele>162.0</ele><time>2026-04-18T15:27:40.27Z</time></trkpt><trkpt lat="44.7141983" lon="8.0274917"><ele>162.0</ele><time>2026-04-18T15:27:41.278Z</time></trkpt><trkpt lat="44.7143367" lon="8.0276133"><ele>162.0</ele><time>2026-04-18T15:27:42.271Z</time></trkpt><trkpt lat="44.7144683" lon="8.0277317"><ele>162.0</ele><time>2026-04-18T15:27:43.266Z</time></trkpt><trkpt lat="44.71459" lon="8.0278417"><ele>162.5</ele><time>2026-04-18T15:27:44.269Z</time></trkpt><trkpt lat="44.7147067" lon="8.0279483"><ele>163.0</ele><time>2026-04-18T15:27:45.274Z</time></trkpt><trkpt lat="44.7148233" lon="8.0280567"><ele>163.5</ele><time>2026-04-18T15:27:46.263Z</time></trkpt><trkpt lat="44.71494" lon="8.0281667"><ele>164.0</ele><time>2026-04-18T15:27:47.28Z</time></trkpt><trkpt lat="44.715055" lon="8.028275"><ele>164.0</ele><time>2026-04-18T15:27:48.273Z</time></trkpt><trkpt lat="44.7151633" lon="8.028375"><ele>164.0</ele><time>2026-04-18T15:27:49.27Z</time></trkpt><trkpt lat="44.71526" lon="8.0284717"><ele>164.0</ele><time>2026-04-18T15:27:50.266Z</time></trkpt><trkpt lat="44.7153417" lon="8.0285617"><ele>164.0</ele><time>2026-04-18T15:27:51.269Z</time></trkpt><trkpt lat="44.7154133" lon="8.028655"><ele>164.0</ele><time>2026-04-18T15:27:52.273Z</time></trkpt><trkpt lat="44.7154817" lon="8.0287467"><ele>164.0</ele><time>2026-04-18T15:27:53.276Z</time></trkpt><trkpt lat="44.71555" lon="8.0288383"><ele>164.0</ele><time>2026-04-18T15:27:54.273Z</time></trkpt><trkpt lat="44.7156233" lon="8.0289367"><ele>164.0</ele><time>2026-04-18T15:27:55.266Z</time></trkpt><trkpt lat="44.7157017" lon="8.029035"><ele>164.0</ele><time>2026-04-18T15:27:56.268Z</time></trkpt><trkpt lat="44.7157933" lon="8.0291383"><ele>164.0</ele><time>2026-04-18T15:27:57.268Z</time></trkpt><trkpt lat="44.7158967" lon="8.0292483"><ele>163.75</ele><time>2026-04-18T15:27:58.273Z</time></trkpt><trkpt lat="44.7160017" lon="8.0293583"><ele>163.5</ele><time>2026-04-18T15:27:59.271Z</time></trkpt><trkpt lat="44.7161033" lon="8.0294717"><ele>163.25</ele><time>2026-04-18T15:28:00.267Z</time></trkpt><trkpt lat="44.71621" lon="8.029585"><ele>163.0</ele><time>2026-04-18T15:28:01.267Z</time></trkpt><trkpt lat="44.7163233" lon="8.0297"><ele>163.0</ele><time>2026-04-18T15:28:02.274Z</time></trkpt><trkpt lat="44.7164383" lon="8.0298083"><ele>163.0</ele><time>2026-04-18T15:28:03.265Z</time></trkpt><trkpt lat="44.7165517" lon="8.0299083"><ele>163.0</ele><time>2026-04-18T15:28:04.274Z</time></trkpt><trkpt lat="44.716665" lon="8.03"><ele>163.0</ele><time>2026-04-18T15:28:05.275Z</time></trkpt><trkpt lat="44.716785" lon="8.0300867"><ele>162.5</ele><time>2026-04-18T15:28:06.27Z</time></trkpt><trkpt lat="44.7169067" lon="8.0301767"><ele>162.0</ele><time>2026-04-18T15:28:07.271Z</time></trkpt><trkpt lat="44.717025" lon="8.0302617"><ele>161.5</ele><time>2026-04-18T15:28:08.269Z</time></trkpt><trkpt lat="44.7171433" lon="8.0303483"><ele>161.0</ele><time>2026-04-18T15:28:09.267Z</time></trkpt><trkpt lat="44.71726" lon="8.0304333"><ele>161.0</ele><time>2026-04-18T15:28:10.277Z</time></trkpt><trkpt lat="44.717375" lon="8.0305183"><ele>161.0</ele><time>2026-04-18T15:28:11.277Z</time></trkpt><trkpt lat="44.71749" lon="8.0306017"><ele>161.0</ele><time>2026-04-18T15:28:12.267Z</time></trkpt><trkpt lat="44.7176017" lon="8.03069"><ele>161.0</ele><time>2026-04-18T15:28:13.268Z</time></trkpt><trkpt lat="44.717715" lon="8.0307783"><ele>161.0</ele><time>2026-04-18T15:28:14.262Z</time></trkpt><trkpt lat="44.7178283" lon="8.0308683"><ele>161.0</ele><time>2026-04-18T15:28:15.271Z</time></trkpt><trkpt lat="44.7179417" lon="8.0309567"><ele>161.0</ele><time>2026-04-18T15:28:16.271Z</time></trkpt><trkpt lat="44.7180567" lon="8.031045"><ele>161.0</ele><time>2026-04-18T15:28:17.278Z</time></trkpt><trkpt lat="44.7181717" lon="8.031135"><ele>161.0</ele><time>2026-04-18T15:28:18.267Z</time></trkpt><trkpt lat="44.7182883" lon="8.031225"><ele>161.0</ele><time>2026-04-18T15:28:19.275Z</time></trkpt><trkpt lat="44.718405" lon="8.0313133"><ele>161.0</ele><time>2026-04-18T15:28:20.27Z</time></trkpt><trkpt lat="44.71852" lon="8.0314017"><ele>161.0</ele><time>2026-04-18T15:28:21.269Z</time></trkpt><trkpt lat="44.718635" lon="8.0314883"><ele>160.5</ele><time>2026-04-18T15:28:22.272Z</time></trkpt><trkpt lat="44.718745" lon="8.031575"><ele>160.0</ele><time>2026-04-18T15:28:23.283Z</time></trkpt><trkpt lat="44.718845" lon="8.03166"><ele>159.5</ele><time>2026-04-18T15:28:24.274Z</time></trkpt><trkpt lat="44.71894" lon="8.03175"><ele>159.0</ele><time>2026-04-18T15:28:25.271Z</time></trkpt><trkpt lat="44.7190317" lon="8.0318483"><ele>159.0</ele><time>2026-04-18T15:28:26.27Z</time></trkpt><trkpt lat="44.7191217" lon="8.0319517"><ele>159.0</ele><time>2026-04-18T15:28:27.266Z</time></trkpt><trkpt lat="44.7192133" lon="8.032065"><ele>159.0</ele><time>2026-04-18T15:28:28.272Z</time></trkpt><trkpt lat="44.7193083" lon="8.03218"><ele>159.0</ele><time>2026-04-18T15:28:29.277Z</time></trkpt><trkpt lat="44.7194067" lon="8.0322967"><ele>158.75</ele><time>2026-04-18T15:28:30.269Z</time></trkpt><trkpt lat="44.7195117" lon="8.032415"><ele>158.5</ele><time>2026-04-18T15:28:31.273Z</time></trkpt><trkpt lat="44.719615" lon="8.0325333"><ele>158.25</ele><time>2026-04-18T15:28:32.259Z</time></trkpt><trkpt lat="44.7197083" lon="8.032645"><ele>158.0</ele><time>2026-04-18T15:28:33.262Z</time></trkpt><trkpt lat="44.7197967" lon="8.0327433"><ele>158.4</ele><time>2026-04-18T15:28:34.272Z</time></trkpt><trkpt lat="44.7198783" lon="8.0328217"><ele>158.8</ele><time>2026-04-18T15:28:35.274Z</time></trkpt><trkpt lat="44.7199583" lon="8.0328683"><ele>159.2</ele><time>2026-04-18T15:28:36.276Z</time></trkpt><trkpt lat="44.7200417" lon="8.0328833"><ele>159.6</ele><time>2026-04-18T15:28:37.264Z</time></trkpt><trkpt lat="44.7201317" lon="8.0328583"><ele>160.0</ele><time>2026-04-18T15:28:38.276Z</time></trkpt><trkpt lat="44.7202317" lon="8.0328017"><ele>160.25</ele><time>2026-04-18T15:28:39.27Z</time></trkpt><trkpt lat="44.7203367" lon="8.0327233"><ele>160.5</ele><time>2026-04-18T15:28:40.265Z</time></trkpt><trkpt lat="44.7204517" lon="8.0326483"><ele>160.75</ele><time>2026-04-18T15:28:41.283Z</time></trkpt><trkpt lat="44.7205733" lon="8.0325867"><ele>161.0</ele><time>2026-04-18T15:28:42.258Z</time></trkpt><trkpt lat="44.7207" lon="8.03254"><ele>161.0</ele><time>2026-04-18T15:28:43.275Z</time></trkpt><trkpt lat="44.7208317" lon="8.0325067"><ele>161.0</ele><time>2026-04-18T15:28:44.273Z</time></trkpt><trkpt lat="44.720965" lon="8.032465"><ele>161.0</ele><time>2026-04-18T15:28:45.273Z</time></trkpt><trkpt lat="44.721095" lon="8.0323917"><ele>161.0</ele><time>2026-04-18T15:28:46.271Z</time></trkpt><trkpt lat="44.72122" lon="8.0322867"><ele>160.5</ele><time>2026-04-18T15:28:47.286Z</time></trkpt><trkpt lat="44.7213483" lon="8.0321733"><ele>160.0</ele><time>2026-04-18T15:28:48.268Z</time></trkpt><trkpt lat="44.7214783" lon="8.0320717"><ele>159.5</ele><time>2026-04-18T15:28:49.275Z</time></trkpt><trkpt lat="44.721615" lon="8.0319983"><ele>159.0</ele><time>2026-04-18T15:28:50.267Z</time></trkpt><trkpt lat="44.721755" lon="8.0319733"><ele>159.33333333333334</ele><time>2026-04-18T15:28:51.271Z</time></trkpt><trkpt lat="44.7219" lon="8.0319683"><ele>159.66666666666669</ele><time>2026-04-18T15:28:52.269Z</time></trkpt><trkpt lat="44.7220567" lon="8.0319767"><ele>160.0</ele><time>2026-04-18T15:28:53.277Z</time></trkpt><trkpt lat="44.7222183" lon="8.0319867"><ele>160.0</ele><time>2026-04-18T15:28:54.268Z</time></trkpt><trkpt lat="44.72238" lon="8.031995"><ele>160.0</ele><time>2026-04-18T15:28:55.273Z</time></trkpt><trkpt lat="44.72254" lon="8.0320033"><ele>160.0</ele><time>2026-04-18T15:28:56.261Z</time></trkpt><trkpt lat="44.7226983" lon="8.0320217"><ele>160.33333333333334</ele><time>2026-04-18T15:28:57.27Z</time></trkpt><trkpt lat="44.72286" lon="8.032045"><ele>160.66666666666666</ele><time>2026-04-18T15:28:58.26Z</time></trkpt><trkpt lat="44.7230183" lon="8.032065"><ele>161.0</ele><time>2026-04-18T15:28:59.263Z</time></trkpt><trkpt lat="44.723175" lon="8.03207"><ele>161.0</ele><time>2026-04-18T15:29:00.266Z</time></trkpt><trkpt lat="44.72333" lon="8.0320633"><ele>161.0</ele><time>2026-04-18T15:29:01.274Z</time></trkpt><trkpt lat="44.7234817" lon="8.0320433"><ele>161.0</ele><time>2026-04-18T15:29:02.273Z</time></trkpt><trkpt lat="44.723635" lon="8.0320217"><ele>160.75</ele><time>2026-04-18T15:29:03.268Z</time></trkpt><trkpt lat="44.72378" lon="8.032"><ele>160.5</ele><time>2026-04-18T15:29:04.271Z</time></trkpt><trkpt lat="44.7239067" lon="8.031975"><ele>160.25</ele><time>2026-04-18T15:29:05.267Z</time></trkpt><trkpt lat="44.7240217" lon="8.0319533"><ele>160.0</ele><time>2026-04-18T15:29:06.27Z</time></trkpt><trkpt lat="44.7241233" lon="8.0319267"><ele>160.0</ele><time>2026-04-18T15:29:07.269Z</time></trkpt><trkpt lat="44.724225" lon="8.0318967"><ele>160.0</ele><time>2026-04-18T15:29:08.27Z</time></trkpt><trkpt lat="44.7243333" lon="8.03186"><ele>160.0</ele><time>2026-04-18T15:29:09.276Z</time></trkpt><trkpt lat="44.7244517" lon="8.031815"><ele>160.0</ele><time>2026-04-18T15:29:10.272Z</time></trkpt><trkpt lat="44.7245733" lon="8.0317567"><ele>159.75</ele><time>2026-04-18T15:29:11.284Z</time></trkpt><trkpt lat="44.7247" lon="8.0316833"><ele>159.5</ele><time>2026-04-18T15:29:12.269Z</time></trkpt><trkpt lat="44.72483" lon="8.0316017"><ele>159.25</ele><time>2026-04-18T15:29:13.271Z</time></trkpt><trkpt lat="44.7249633" lon="8.0315167"><ele>159.0</ele><time>2026-04-18T15:29:14.279Z</time></trkpt><trkpt lat="44.7250983" lon="8.03142"><ele>160.0</ele><time>2026-04-18T15:29:15.268Z</time></trkpt><trkpt lat="44.72523" lon="8.0313133"><ele>161.0</ele><time>2026-04-18T15:29:16.272Z</time></trkpt><trkpt lat="44.7253617" lon="8.031205"><ele>162.0</ele><time>2026-04-18T15:29:17.275Z</time></trkpt><trkpt lat="44.725495" lon="8.0310983"><ele>162.0</ele><time>2026-04-18T15:29:18.264Z</time></trkpt><trkpt lat="44.72563" lon="8.030995"><ele>162.0</ele><time>2026-04-18T15:29:19.269Z</time></trkpt><trkpt lat="44.7257667" lon="8.030895"><ele>162.0</ele><time>2026-04-18T15:29:20.263Z</time></trkpt><trkpt lat="44.725905" lon="8.0307917"><ele>162.33333333333334</ele><time>2026-04-18T15:29:21.272Z</time></trkpt><trkpt lat="44.726045" lon="8.030685"><ele>162.66666666666669</ele><time>2026-04-18T15:29:22.273Z</time></trkpt><trkpt lat="44.7261867" lon="8.0305733"><ele>163.0</ele><time>2026-04-18T15:29:23.277Z</time></trkpt><trkpt lat="44.7263317" lon="8.030465"><ele>163.0</ele><time>2026-04-18T15:29:24.273Z</time></trkpt><trkpt lat="44.726485" lon="8.030365"><ele>163.0</ele><time>2026-04-18T15:29:25.268Z</time></trkpt><trkpt lat="44.7266383" lon="8.0302733"><ele>163.0</ele><time>2026-04-18T15:29:26.268Z</time></trkpt><trkpt lat="44.7267917" lon="8.0301867"><ele>163.0</ele><time>2026-04-18T15:29:27.268Z</time></trkpt><trkpt lat="44.726945" lon="8.0300983"><ele>163.0</ele><time>2026-04-18T15:29:28.273Z</time></trkpt><trkpt lat="44.727095" lon="8.0300117"><ele>163.0</ele><time>2026-04-18T15:29:29.338Z</time></trkpt><trkpt lat="44.7272417" lon="8.0299233"><ele>163.33333333333334</ele><time>2026-04-18T15:29:30.264Z</time></trkpt><trkpt lat="44.7273883" lon="8.029835"><ele>163.66666666666666</ele><time>2026-04-18T15:29:31.272Z</time></trkpt><trkpt lat="44.7275367" lon="8.029755"><ele>164.0</ele><time>2026-04-18T15:29:32.269Z</time></trkpt><trkpt lat="44.727685" lon="8.029685"><ele>164.5</ele><time>2026-04-18T15:29:33.27Z</time></trkpt><trkpt lat="44.727825" lon="8.0296317"><ele>165.0</ele><time>2026-04-18T15:29:34.274Z</time></trkpt><trkpt lat="44.7279533" lon="8.029595"><ele>165.5</ele><time>2026-04-18T15:29:35.263Z</time></trkpt><trkpt lat="44.728075" lon="8.0295633"><ele>166.0</ele><time>2026-04-18T15:29:36.268Z</time></trkpt><trkpt lat="44.7281967" lon="8.029535"><ele>166.0</ele><time>2026-04-18T15:29:37.26Z</time></trkpt><trkpt lat="44.72832" lon="8.029505"><ele>166.0</ele><time>2026-04-18T15:29:38.262Z</time></trkpt><trkpt lat="44.72845" lon="8.0294667"><ele>166.0</ele><time>2026-04-18T15:29:39.263Z</time></trkpt><trkpt lat="44.7285883" lon="8.0294233"><ele>166.0</ele><time>2026-04-18T15:29:40.27Z</time></trkpt><trkpt lat="44.7287333" lon="8.0293767"><ele>166.33333333333334</ele><time>2026-04-18T15:29:41.29Z</time></trkpt><trkpt lat="44.7288833" lon="8.02932"><ele>166.66666666666666</ele><time>2026-04-18T15:29:42.267Z</time></trkpt><trkpt lat="44.7290383" lon="8.0292617"><ele>167.0</ele><time>2026-04-18T15:29:43.264Z</time></trkpt><trkpt lat="44.7291933" lon="8.029205"><ele>167.0</ele><time>2026-04-18T15:29:44.269Z</time></trkpt><trkpt lat="44.72934" lon="8.0291533"><ele>167.0</ele><time>2026-04-18T15:29:45.268Z</time></trkpt><trkpt lat="44.7294833" lon="8.0291117"><ele>167.0</ele><time>2026-04-18T15:29:46.277Z</time></trkpt><trkpt lat="44.7296267" lon="8.029085"><ele>167.0</ele><time>2026-04-18T15:29:47.291Z</time></trkpt><trkpt lat="44.72977" lon="8.029075"><ele>169.33333333333331</ele><time>2026-04-18T15:29:48.262Z</time></trkpt><trkpt lat="44.7299183" lon="8.0290933"><ele>171.66666666666666</ele><time>2026-04-18T15:29:49.266Z</time></trkpt><trkpt lat="44.73007" lon="8.0291317"><ele>174.0</ele><time>2026-04-18T15:29:50.262Z</time></trkpt><trkpt lat="44.7302267" lon="8.0291833"><ele>176.33333333333334</ele><time>2026-04-18T15:29:51.272Z</time></trkpt><trkpt lat="44.7303867" lon="8.0292433"><ele>178.66666666666669</ele><time>2026-04-18T15:29:52.273Z</time></trkpt><trkpt lat="44.7305583" lon="8.029285"><ele>181.0</ele><time>2026-04-18T15:29:53.292Z</time></trkpt><trkpt lat="44.7307267" lon="8.0293283"><ele>181.0</ele><time>2026-04-18T15:29:54.267Z</time></trkpt><trkpt lat="44.73089" lon="8.02937"><ele>181.0</ele><time>2026-04-18T15:29:55.264Z</time></trkpt><trkpt lat="44.7310417" lon="8.0294183"><ele>181.0</ele><time>2026-04-18T15:29:56.273Z</time></trkpt><trkpt lat="44.7311867" lon="8.0294867"><ele>189.33333333333334</ele><time>2026-04-18T15:29:57.272Z</time></trkpt><trkpt lat="44.7313233" lon="8.029585"><ele>197.66666666666669</ele><time>2026-04-18T15:29:58.266Z</time></trkpt><trkpt lat="44.7314533" lon="8.029715"><ele>206.0</ele><time>2026-04-18T15:29:59.274Z</time></trkpt><trkpt lat="44.7315767" lon="8.0298567"><ele>203.25</ele><time>2026-04-18T15:30:00.262Z</time></trkpt><trkpt lat="44.731695" lon="8.02999"><ele>200.5</ele><time>2026-04-18T15:30:01.273Z</time></trkpt><trkpt lat="44.73181" lon="8.030115"><ele>197.75</ele><time>2026-04-18T15:30:02.27Z</time></trkpt><trkpt lat="44.7319233" lon="8.0302333"><ele>195.0</ele><time>2026-04-18T15:30:03.27Z</time></trkpt><trkpt lat="44.7320433" lon="8.0303383"><ele>200.2</ele><time>2026-04-18T15:30:04.265Z</time></trkpt><trkpt lat="44.732165" lon="8.030425"><ele>205.4</ele><time>2026-04-18T15:30:05.27Z</time></trkpt><trkpt lat="44.732275" lon="8.0304883"><ele>210.60000000000002</ele><time>2026-04-18T15:30:06.266Z</time></trkpt><trkpt lat="44.7323667" lon="8.0305383"><ele>215.8</ele><time>2026-04-18T15:30:07.264Z</time></trkpt><trkpt lat="44.73244" lon="8.03058"><ele>221.0</ele><time>2026-04-18T15:30:08.267Z</time></trkpt><trkpt lat="44.7325183" lon="8.0306267"><ele>221.0</ele><time>2026-04-18T15:30:09.265Z</time></trkpt><trkpt lat="44.73261" lon="8.03069"><ele>221.0</ele><time>2026-04-18T15:30:10.271Z</time></trkpt><trkpt lat="44.732715" lon="8.030765"><ele>221.0</ele><time>2026-04-18T15:30:11.289Z</time></trkpt><trkpt lat="44.732835" lon="8.0308617"><ele>221.0</ele><time>2026-04-18T15:30:12.273Z</time></trkpt><trkpt lat="44.732955" lon="8.0309867"><ele>222.33333333333334</ele><time>2026-04-18T15:30:13.27Z</time></trkpt><trkpt lat="44.7330817" lon="8.0311167"><ele>223.66666666666669</ele><time>2026-04-18T15:30:14.267Z</time></trkpt><trkpt lat="44.73321" lon="8.0312467"><ele>225.0</ele><time>2026-04-18T15:30:15.268Z</time></trkpt><trkpt lat="44.73333" lon="8.0313833"><ele>225.0</ele><time>2026-04-18T15:30:16.268Z</time></trkpt><trkpt lat="44.7334467" lon="8.0315233"><ele>225.0</ele><time>2026-04-18T15:30:17.287Z</time></trkpt><trkpt lat="44.7335567" lon="8.0316783"><ele>225.0</ele><time>2026-04-18T15:30:18.267Z</time></trkpt><trkpt lat="44.7336533" lon="8.0318383"><ele>226.2</ele><time>2026-04-18T15:30:19.267Z</time></trkpt><trkpt lat="44.7337383" lon="8.0319783"><ele>227.4</ele><time>2026-04-18T15:30:20.267Z</time></trkpt><trkpt lat="44.73382" lon="8.0320833"><ele>228.60000000000002</ele><time>2026-04-18T15:30:21.267Z</time></trkpt><trkpt lat="44.7338933" lon="8.0321067"><ele>229.8</ele><time>2026-04-18T15:30:22.265Z</time></trkpt><trkpt lat="44.7339633" lon="8.0320817"><ele>231.0</ele><time>2026-04-18T15:30:23.289Z</time></trkpt><trkpt lat="44.734025" lon="8.0320417"><ele>231.0</ele><time>2026-04-18T15:30:24.269Z</time></trkpt><trkpt lat="44.734075" lon="8.031975"><ele>231.0</ele><time>2026-04-18T15:30:25.269Z</time></trkpt><trkpt lat="44.7341183" lon="8.0318583"><ele>231.0</ele><time>2026-04-18T15:30:27.27Z</time></trkpt><trkpt lat="44.73396" lon="8.03159"><ele>231.0</ele><time>2026-04-18T15:30:29.264Z</time></trkpt><trkpt lat="44.733825" lon="8.0313767"><ele>229.0</ele><time>2026-04-18T15:30:30.262Z</time></trkpt><trkpt lat="44.7336783" lon="8.031145"><ele>227.0</ele><time>2026-04-18T15:30:31.271Z</time></trkpt><trkpt lat="44.73353" lon="8.0309333"><ele>225.0</ele><time>2026-04-18T15:30:32.266Z</time></trkpt><trkpt lat="44.7333967" lon="8.0307467"><ele>232.66666666666669</ele><time>2026-04-18T15:30:33.268Z</time></trkpt><trkpt lat="44.7332717" lon="8.0305817"><ele>240.33333333333334</ele><time>2026-04-18T15:30:34.268Z</time></trkpt><trkpt lat="44.7331467" lon="8.0304217"><ele>248.0</ele><time>2026-04-18T15:30:35.268Z</time></trkpt><trkpt lat="44.733015" lon="8.0302717"><ele>248.0</ele><time>2026-04-18T15:30:36.274Z</time></trkpt><trkpt lat="44.7328833" lon="8.0301317"><ele>248.0</ele><time>2026-04-18T15:30:37.266Z</time></trkpt><trkpt lat="44.7327567" lon="8.029985"><ele>248.0</ele><time>2026-04-18T15:30:38.273Z</time></trkpt><trkpt lat="44.7326517" lon="8.0298567"><ele>244.4</ele><time>2026-04-18T15:30:39.274Z</time></trkpt><trkpt lat="44.7325667" lon="8.0297283"><ele>240.8</ele><time>2026-04-18T15:30:40.271Z</time></trkpt><trkpt lat="44.7325167" lon="8.0295967"><ele>237.2</ele><time>2026-04-18T15:30:41.293Z</time></trkpt><trkpt lat="44.7325" lon="8.0294617"><ele>233.6</ele><time>2026-04-18T15:30:42.273Z</time></trkpt><trkpt lat="44.7324967" lon="8.0293283"><ele>230.0</ele><time>2026-04-18T15:30:43.272Z</time></trkpt><trkpt lat="44.732545" lon="8.029225"><ele>229.8</ele><time>2026-04-18T15:30:44.265Z</time></trkpt><trkpt lat="44.7326117" lon="8.0291183"><ele>229.6</ele><time>2026-04-18T15:30:45.272Z</time></trkpt><trkpt lat="44.7326833" lon="8.02902"><ele>229.39999999999998</ele><time>2026-04-18T15:30:46.27Z</time></trkpt><trkpt lat="44.7327583" lon="8.0289167"><ele>229.2</ele><time>2026-04-18T15:30:47.293Z</time></trkpt><trkpt lat="44.7328433" lon="8.0288033"><ele>229.0</ele><time>2026-04-18T15:30:48.274Z</time></trkpt><trkpt lat="44.7329433" lon="8.0286683"><ele>234.0</ele><time>2026-04-18T15:30:49.269Z</time></trkpt><trkpt lat="44.733055" lon="8.0285083"><ele>239.0</ele><time>2026-04-18T15:30:50.268Z</time></trkpt><trkpt lat="44.7331617" lon="8.0283317"><ele>244.0</ele><time>2026-04-18T15:30:51.264Z</time></trkpt><trkpt lat="44.7332417" lon="8.0281467"><ele>244.0</ele><time>2026-04-18T15:30:52.26Z</time></trkpt><trkpt lat="44.73329" lon="8.0279233"><ele>244.0</ele><time>2026-04-18T15:30:53.287Z</time></trkpt><trkpt lat="44.733325" lon="8.0276867"><ele>244.0</ele><time>2026-04-18T15:30:54.267Z</time></trkpt><trkpt lat="44.73335" lon="8.02743"><ele>245.0</ele><time>2026-04-18T15:30:55.265Z</time></trkpt><trkpt lat="44.7333733" lon="8.0271733"><ele>246.0</ele><time>2026-04-18T15:30:56.268Z</time></trkpt><trkpt lat="44.7333933" lon="8.0269267"><ele>247.0</ele><time>2026-04-18T15:30:57.273Z</time></trkpt><trkpt lat="44.7334033" lon="8.0266833"><ele>249.5</ele><time>2026-04-18T15:30:58.262Z</time></trkpt><trkpt lat="44.733405" lon="8.0264567"><ele>252.0</ele><time>2026-04-18T15:30:59.263Z</time></trkpt><trkpt lat="44.7333917" lon="8.0262517"><ele>254.5</ele><time>2026-04-18T15:31:00.264Z</time></trkpt><trkpt lat="44.733345" lon="8.0260667"><ele>257.0</ele><time>2026-04-18T15:31:01.266Z</time></trkpt><trkpt lat="44.7332583" lon="8.0259033"><ele>260.0</ele><time>2026-04-18T15:31:02.27Z</time></trkpt><trkpt lat="44.7331417" lon="8.0257583"><ele>263.0</ele><time>2026-04-18T15:31:03.276Z</time></trkpt><trkpt lat="44.7330133" lon="8.02562"><ele>266.0</ele><time>2026-04-18T15:31:04.263Z</time></trkpt><trkpt lat="44.7328917" lon="8.0254933"><ele>266.0</ele><time>2026-04-18T15:31:05.278Z</time></trkpt><trkpt lat="44.73279" lon="8.0253767"><ele>266.0</ele><time>2026-04-18T15:31:06.269Z</time></trkpt><trkpt lat="44.73271" lon="8.02526"><ele>266.0</ele><time>2026-04-18T15:31:07.267Z</time></trkpt><trkpt lat="44.7326817" lon="8.0251467"><ele>266.0</ele><time>2026-04-18T15:31:08.263Z</time></trkpt><trkpt lat="44.7326833" lon="8.0250483"><ele>266.0</ele><time>2026-04-18T15:31:09.271Z</time></trkpt><trkpt lat="44.73274" lon="8.0249817"><ele>266.0</ele><time>2026-04-18T15:31:11.293Z</time></trkpt><trkpt lat="44.7328317" lon="8.0250217"><ele>266.0</ele><time>2026-04-18T15:31:13.267Z</time></trkpt><trkpt lat="44.7329017" lon="8.0251067"><ele>266.0</ele><time>2026-04-18T15:31:14.268Z</time></trkpt><trkpt lat="44.7329833" lon="8.0252017"><ele>266.0</ele><time>2026-04-18T15:31:15.264Z</time></trkpt><trkpt lat="44.7330833" lon="8.0253117"><ele>266.0</ele><time>2026-04-18T15:31:16.271Z</time></trkpt><trkpt lat="44.7332" lon="8.025425"><ele>266.0</ele><time>2026-04-18T15:31:17.293Z</time></trkpt><trkpt lat="44.7333333" lon="8.0255517"><ele>266.0</ele><time>2026-04-18T15:31:18.263Z</time></trkpt><trkpt lat="44.7334817" lon="8.0256917"><ele>266.0</ele><time>2026-04-18T15:31:19.27Z</time></trkpt><trkpt lat="44.7336283" lon="8.0258417"><ele>269.0</ele><time>2026-04-18T15:31:20.269Z</time></trkpt><trkpt lat="44.7337717" lon="8.0260017"><ele>272.0</ele><time>2026-04-18T15:31:21.268Z</time></trkpt><trkpt lat="44.733905" lon="8.0261633"><ele>275.0</ele><time>2026-04-18T15:31:22.27Z</time></trkpt><trkpt lat="44.7340267" lon="8.0263233"><ele>275.0</ele><time>2026-04-18T15:31:23.29Z</time></trkpt><trkpt lat="44.7341383" lon="8.0264867"><ele>275.0</ele><time>2026-04-18T15:31:24.266Z</time></trkpt><trkpt lat="44.73424" lon="8.0266533"><ele>275.0</ele><time>2026-04-18T15:31:25.265Z</time></trkpt><trkpt lat="44.7343367" lon="8.02682"><ele>279.6666666666667</ele><time>2026-04-18T15:31:26.272Z</time></trkpt><trkpt lat="44.734425" lon="8.0269867"><ele>284.3333333333333</ele><time>2026-04-18T15:31:27.271Z</time></trkpt><trkpt lat="44.7345117" lon="8.0271617"><ele>289.0</ele><time>2026-04-18T15:31:28.263Z</time></trkpt><trkpt lat="44.7345967" lon="8.02734"><ele>286.3333333333333</ele><time>2026-04-18T15:31:29.265Z</time></trkpt><trkpt lat="44.7346767" lon="8.0275233"><ele>283.6666666666667</ele><time>2026-04-18T15:31:30.267Z</time></trkpt><trkpt lat="44.7347583" lon="8.0277033"><ele>281.0</ele><time>2026-04-18T15:31:31.27Z</time></trkpt><trkpt lat="44.7348417" lon="8.027885"><ele>281.0</ele><time>2026-04-18T15:31:32.27Z</time></trkpt><trkpt lat="44.7349217" lon="8.028065"><ele>281.0</ele><time>2026-04-18T15:31:33.28Z</time></trkpt><trkpt lat="44.7350017" lon="8.02825"><ele>281.0</ele><time>2026-04-18T15:31:34.264Z</time></trkpt><trkpt lat="44.7350817" lon="8.0284333"><ele>279.6666666666667</ele><time>2026-04-18T15:31:35.268Z</time></trkpt><trkpt lat="44.7351583" lon="8.0286233"><ele>278.3333333333333</ele><time>2026-04-18T15:31:36.269Z</time></trkpt><trkpt lat="44.7352267" lon="8.02882"><ele>277.0</ele><time>2026-04-18T15:31:37.261Z</time></trkpt><trkpt lat="44.735275" lon="8.029015"><ele>282.75</ele><time>2026-04-18T15:31:38.268Z</time></trkpt><trkpt lat="44.7353083" lon="8.029215"><ele>288.5</ele><time>2026-04-18T15:31:39.258Z</time></trkpt><trkpt lat="44.735325" lon="8.0294117"><ele>294.25</ele><time>2026-04-18T15:31:40.27Z</time></trkpt><trkpt lat="44.7353383" lon="8.0296033"><ele>300.0</ele><time>2026-04-18T15:31:41.292Z</time></trkpt><trkpt lat="44.7353533" lon="8.0297867"><ele>300.0</ele><time>2026-04-18T15:31:42.264Z</time></trkpt><trkpt lat="44.7353717" lon="8.0299617"><ele>300.0</ele><time>2026-04-18T15:31:43.262Z</time></trkpt><trkpt lat="44.7354033" lon="8.030125"><ele>300.0</ele><time>2026-04-18T15:31:44.265Z</time></trkpt><trkpt lat="44.73545" lon="8.0302783"><ele>300.0</ele><time>2026-04-18T15:31:45.258Z</time></trkpt><trkpt lat="44.7355117" lon="8.0304217"><ele>300.75</ele><time>2026-04-18T15:31:46.261Z</time></trkpt><trkpt lat="44.7355867" lon="8.0305683"><ele>301.5</ele><time>2026-04-18T15:31:47.286Z</time></trkpt><trkpt lat="44.73568" lon="8.030685"><ele>302.25</ele><time>2026-04-18T15:31:48.258Z</time></trkpt><trkpt lat="44.7357917" lon="8.03079"><ele>303.0</ele><time>2026-04-18T15:31:49.261Z</time></trkpt><trkpt lat="44.7359267" lon="8.030875"><ele>306.25</ele><time>2026-04-18T15:31:50.264Z</time></trkpt><trkpt lat="44.736055" lon="8.0309517"><ele>309.5</ele><time>2026-04-18T15:31:51.264Z</time></trkpt><trkpt lat="44.7361633" lon="8.0310367"><ele>312.75</ele><time>2026-04-18T15:31:52.258Z</time></trkpt><trkpt lat="44.736245" lon="8.031135"><ele>316.0</ele><time>2026-04-18T15:31:53.293Z</time></trkpt><trkpt lat="44.7363217" lon="8.0312417"><ele>316.0</ele><time>2026-04-18T15:31:54.272Z</time></trkpt><trkpt lat="44.73638" lon="8.0313667"><ele>316.0</ele><time>2026-04-18T15:31:55.265Z</time></trkpt><trkpt lat="44.736425" lon="8.0315133"><ele>316.0</ele><time>2026-04-18T15:31:56.268Z</time></trkpt><trkpt lat="44.73646" lon="8.0316783"><ele>316.0</ele><time>2026-04-18T15:31:57.265Z</time></trkpt><trkpt lat="44.73651" lon="8.0318417"><ele>314.25</ele><time>2026-04-18T15:31:58.274Z</time></trkpt><trkpt lat="44.7365717" lon="8.0320067"><ele>312.5</ele><time>2026-04-18T15:31:59.336Z</time></trkpt><trkpt lat="44.7366633" lon="8.0321733"><ele>310.75</ele><time>2026-04-18T15:32:00.262Z</time></trkpt><trkpt lat="44.7367683" lon="8.03235"><ele>309.0</ele><time>2026-04-18T15:32:01.268Z</time></trkpt><trkpt lat="44.7368517" lon="8.032525"><ele>315.25</ele><time>2026-04-18T15:32:02.269Z</time></trkpt><trkpt lat="44.7369267" lon="8.0326967"><ele>321.5</ele><time>2026-04-18T15:32:03.263Z</time></trkpt><trkpt lat="44.736985" lon="8.0328667"><ele>327.75</ele><time>2026-04-18T15:32:04.272Z</time></trkpt><trkpt lat="44.7370217" lon="8.033035"><ele>334.0</ele><time>2026-04-18T15:32:05.262Z</time></trkpt><trkpt lat="44.737035" lon="8.0331933"><ele>334.5</ele><time>2026-04-18T15:32:06.269Z</time></trkpt><trkpt lat="44.7370433" lon="8.0333667"><ele>335.0</ele><time>2026-04-18T15:32:07.271Z</time></trkpt><trkpt lat="44.7370683" lon="8.033555"><ele>335.5</ele><time>2026-04-18T15:32:08.269Z</time></trkpt><trkpt lat="44.7371183" lon="8.0337633"><ele>336.0</ele><time>2026-04-18T15:32:09.27Z</time></trkpt><trkpt lat="44.737165" lon="8.03396"><ele>336.0</ele><time>2026-04-18T15:32:10.259Z</time></trkpt><trkpt lat="44.7372133" lon="8.0341433"><ele>336.0</ele><time>2026-04-18T15:32:11.282Z</time></trkpt><trkpt lat="44.73726" lon="8.03432"><ele>336.0</ele><time>2026-04-18T15:32:12.256Z</time></trkpt><trkpt lat="44.7373267" lon="8.0344883"><ele>336.0</ele><time>2026-04-18T15:32:13.266Z</time></trkpt><trkpt lat="44.7374233" lon="8.0346317"><ele>336.0</ele><time>2026-04-18T15:32:14.27Z</time></trkpt><trkpt lat="44.737535" lon="8.0347567"><ele>336.0</ele><time>2026-04-18T15:32:15.272Z</time></trkpt><trkpt lat="44.7376117" lon="8.0348883"><ele>336.0</ele><time>2026-04-18T15:32:16.266Z</time></trkpt><trkpt lat="44.737655" lon="8.0350367"><ele>336.0</ele><time>2026-04-18T15:32:17.289Z</time></trkpt><trkpt lat="44.73768" lon="8.03518"><ele>337.0</ele><time>2026-04-18T15:32:18.258Z</time></trkpt><trkpt lat="44.7376933" lon="8.0353333"><ele>338.0</ele><time>2026-04-18T15:32:19.27Z</time></trkpt><trkpt lat="44.7377183" lon="8.03548"><ele>339.0</ele><time>2026-04-18T15:32:20.268Z</time></trkpt><trkpt lat="44.7377567" lon="8.0356133"><ele>340.0</ele><time>2026-04-18T15:32:21.268Z</time></trkpt><trkpt lat="44.7377983" lon="8.0357383"><ele>341.0</ele><time>2026-04-18T15:32:22.266Z</time></trkpt><trkpt lat="44.737865" lon="8.03584"><ele>336.5</ele><time>2026-04-18T15:32:23.288Z</time></trkpt><trkpt lat="44.737955" lon="8.0359217"><ele>332.0</ele><time>2026-04-18T15:32:24.266Z</time></trkpt><trkpt lat="44.7380733" lon="8.035965"><ele>327.5</ele><time>2026-04-18T15:32:25.272Z</time></trkpt><trkpt lat="44.73825" lon="8.0359383"><ele>323.0</ele><time>2026-04-18T15:32:26.266Z</time></trkpt><trkpt lat="44.7384183" lon="8.0359233"><ele>324.25</ele><time>2026-04-18T15:32:27.272Z</time></trkpt><trkpt lat="44.738565" lon="8.0359133"><ele>325.5</ele><time>2026-04-18T15:32:28.269Z</time></trkpt><trkpt lat="44.7386933" lon="8.0358933"><ele>326.75</ele><time>2026-04-18T15:32:29.269Z</time></trkpt><trkpt lat="44.738805" lon="8.0358667"><ele>328.0</ele><time>2026-04-18T15:32:30.272Z</time></trkpt><trkpt lat="44.73891" lon="8.0358367"><ele>328.0</ele><time>2026-04-18T15:32:31.264Z</time></trkpt><trkpt lat="44.7389867" lon="8.035765"><ele>343.0</ele><time>2026-04-18T15:32:32.27Z</time></trkpt><trkpt lat="44.7390533" lon="8.03571"><ele>343.0</ele><time>2026-04-18T15:32:33.265Z</time></trkpt><trkpt lat="44.7391483" lon="8.0356617"><ele>343.0</ele><time>2026-04-18T15:32:35.267Z</time></trkpt><trkpt lat="44.739175" lon="8.0357717"><ele>343.0</ele><time>2026-04-18T15:32:41.292Z</time></trkpt><trkpt lat="44.739195" lon="8.0358667"><ele>328.0</ele><time>2026-04-18T15:32:44.272Z</time></trkpt></trkseg><trkseg><trkpt lat="44.739085" lon="8.0355183"><ele>343.0</ele><time>2026-04-18T17:03:53.288Z</time></trkpt><trkpt lat="44.7391317" lon="8.0354517"><ele>343.0</ele><time>2026-04-18T17:03:54.25Z</time></trkpt><trkpt lat="44.7391967" lon="8.0353717"><ele>343.0</ele><time>2026-04-18T17:03:55.249Z</time></trkpt><trkpt lat="44.73928" lon="8.0352717"><ele>343.0</ele><time>2026-04-18T17:03:56.25Z</time></trkpt><trkpt lat="44.739375" lon="8.0351783"><ele>343.0</ele><time>2026-04-18T17:03:57.244Z</time></trkpt><trkpt lat="44.7394883" lon="8.0350967"><ele>344.25</ele><time>2026-04-18T17:03:58.25Z</time></trkpt><trkpt lat="44.7396133" lon="8.035045"><ele>345.5</ele><time>2026-04-18T17:03:59.306Z</time></trkpt><trkpt lat="44.7397533" lon="8.0350217"><ele>346.75</ele><time>2026-04-18T17:04:00.246Z</time></trkpt><trkpt lat="44.739895" lon="8.0349933"><ele>348.0</ele><time>2026-04-18T17:04:01.254Z</time></trkpt><trkpt lat="44.7400317" lon="8.0349633"><ele>351.25</ele><time>2026-04-18T17:04:02.252Z</time></trkpt><trkpt lat="44.74017" lon="8.0349233"><ele>354.5</ele><time>2026-04-18T17:04:03.257Z</time></trkpt><trkpt lat="44.7402967" lon="8.03487"><ele>357.75</ele><time>2026-04-18T17:04:04.252Z</time></trkpt><trkpt lat="44.7404117" lon="8.0347867"><ele>361.0</ele><time>2026-04-18T17:04:05.304Z</time></trkpt><trkpt lat="44.7405183" lon="8.034685"><ele>361.0</ele><time>2026-04-18T17:04:06.247Z</time></trkpt><trkpt lat="44.7405917" lon="8.0345483"><ele>361.0</ele><time>2026-04-18T17:04:07.251Z</time></trkpt><trkpt lat="44.7406417" lon="8.03439"><ele>361.0</ele><time>2026-04-18T17:04:08.255Z</time></trkpt><trkpt lat="44.7406783" lon="8.0342467"><ele>361.0</ele><time>2026-04-18T17:04:09.248Z</time></trkpt><trkpt lat="44.7407133" lon="8.034145"><ele>361.0</ele><time>2026-04-18T17:04:10.257Z</time></trkpt><trkpt lat="44.7407717" lon="8.0340283"><ele>361.0</ele><time>2026-04-18T17:04:12.248Z</time></trkpt><trkpt lat="44.74077" lon="8.0338867"><ele>361.0</ele><time>2026-04-18T17:04:14.247Z</time></trkpt><trkpt lat="44.7407517" lon="8.03377"><ele>361.0</ele><time>2026-04-18T17:04:15.256Z</time></trkpt><trkpt lat="44.7407317" lon="8.0336317"><ele>361.0</ele><time>2026-04-18T17:04:16.253Z</time></trkpt><trkpt lat="44.7407" lon="8.03349"><ele>361.0</ele><time>2026-04-18T17:04:17.294Z</time></trkpt><trkpt lat="44.7406633" lon="8.0333233"><ele>358.0</ele><time>2026-04-18T17:04:18.251Z</time></trkpt><trkpt lat="44.7406" lon="8.03315"><ele>355.0</ele><time>2026-04-18T17:04:19.255Z</time></trkpt><trkpt lat="44.7405283" lon="8.0329767"><ele>352.0</ele><time>2026-04-18T17:04:20.25Z</time></trkpt><trkpt lat="44.7404517" lon="8.032805"><ele>349.0</ele><time>2026-04-18T17:04:21.251Z</time></trkpt><trkpt lat="44.740385" lon="8.03264"><ele>349.0</ele><time>2026-04-18T17:04:22.245Z</time></trkpt><trkpt lat="44.74033" lon="8.0324883"><ele>349.0</ele><time>2026-04-18T17:04:23.296Z</time></trkpt><trkpt lat="44.7402867" lon="8.0323567"><ele>349.0</ele><time>2026-04-18T17:04:24.252Z</time></trkpt><trkpt lat="44.740245" lon="8.03225"><ele>349.0</ele><time>2026-04-18T17:04:25.249Z</time></trkpt><trkpt lat="44.7401767" lon="8.0321317"><ele>349.0</ele><time>2026-04-18T17:05:44.249Z</time></trkpt><trkpt lat="44.74013" lon="8.0320417"><ele>347.75</ele><time>2026-04-18T17:05:45.25Z</time></trkpt><trkpt lat="44.7400583" lon="8.0319133"><ele>346.5</ele><time>2026-04-18T17:05:46.254Z</time></trkpt><trkpt lat="44.73997" lon="8.0317583"><ele>345.25</ele><time>2026-04-18T17:05:47.304Z</time></trkpt><trkpt lat="44.7398567" lon="8.0315767"><ele>344.0</ele><time>2026-04-18T17:05:48.251Z</time></trkpt><trkpt lat="44.7397467" lon="8.0314017"><ele>344.0</ele><time>2026-04-18T17:05:49.251Z</time></trkpt><trkpt lat="44.739625" lon="8.0312167"><ele>344.0</ele><time>2026-04-18T17:05:50.254Z</time></trkpt><trkpt lat="44.7394933" lon="8.0310217"><ele>344.0</ele><time>2026-04-18T17:05:51.26Z</time></trkpt><trkpt lat="44.7393583" lon="8.03083"><ele>346.33333333333337</ele><time>2026-04-18T17:05:52.254Z</time></trkpt><trkpt lat="44.7392283" lon="8.03065"><ele>348.6666666666667</ele><time>2026-04-18T17:05:53.299Z</time></trkpt><trkpt lat="44.7391133" lon="8.0304717"><ele>351.0</ele><time>2026-04-18T17:05:54.254Z</time></trkpt><trkpt lat="44.7390033" lon="8.03029"><ele>351.0</ele><time>2026-04-18T17:05:55.254Z</time></trkpt><trkpt lat="44.738905" lon="8.0301067"><ele>351.0</ele><time>2026-04-18T17:05:56.261Z</time></trkpt><trkpt lat="44.7388217" lon="8.0299067"><ele>351.0</ele><time>2026-04-18T17:05:57.255Z</time></trkpt><trkpt lat="44.7387617" lon="8.0296967"><ele>351.6666666666667</ele><time>2026-04-18T17:05:58.261Z</time></trkpt><trkpt lat="44.7387267" lon="8.0294767"><ele>352.33333333333337</ele><time>2026-04-18T17:05:59.307Z</time></trkpt><trkpt lat="44.7387217" lon="8.0292317"><ele>353.0</ele><time>2026-04-18T17:06:00.248Z</time></trkpt><trkpt lat="44.73874" lon="8.0289817"><ele>357.0</ele><time>2026-04-18T17:06:01.256Z</time></trkpt><trkpt lat="44.738775" lon="8.0287433"><ele>361.0</ele><time>2026-04-18T17:06:02.248Z</time></trkpt><trkpt lat="44.73883" lon="8.02852"><ele>365.0</ele><time>2026-04-18T17:06:03.253Z</time></trkpt><trkpt lat="44.7389067" lon="8.0283167"><ele>368.33333333333337</ele><time>2026-04-18T17:06:04.249Z</time></trkpt><trkpt lat="44.739" lon="8.0281333"><ele>371.6666666666667</ele><time>2026-04-18T17:06:05.308Z</time></trkpt><trkpt lat="44.7391183" lon="8.0279617"><ele>375.0</ele><time>2026-04-18T17:06:06.252Z</time></trkpt><trkpt lat="44.739255" lon="8.0277933"><ele>376.0</ele><time>2026-04-18T17:06:07.251Z</time></trkpt><trkpt lat="44.7394017" lon="8.02763"><ele>377.0</ele><time>2026-04-18T17:06:08.254Z</time></trkpt><trkpt lat="44.7395533" lon="8.02747"><ele>378.0</ele><time>2026-04-18T17:06:09.253Z</time></trkpt><trkpt lat="44.7396983" lon="8.0273067"><ele>378.0</ele><time>2026-04-18T17:06:10.261Z</time></trkpt><trkpt lat="44.73984" lon="8.0271467"><ele>378.0</ele><time>2026-04-18T17:06:11.295Z</time></trkpt><trkpt lat="44.73998" lon="8.026985"><ele>378.0</ele><time>2026-04-18T17:06:12.25Z</time></trkpt><trkpt lat="44.7401183" lon="8.0268233"><ele>376.3333333333333</ele><time>2026-04-18T17:06:13.253Z</time></trkpt><trkpt lat="44.7402483" lon="8.02666"><ele>374.66666666666663</ele><time>2026-04-18T17:06:14.249Z</time></trkpt><trkpt lat="44.7403667" lon="8.02649"><ele>373.0</ele><time>2026-04-18T17:06:15.254Z</time></trkpt><trkpt lat="44.7404667" lon="8.0263017"><ele>371.66666666666663</ele><time>2026-04-18T17:06:16.254Z</time></trkpt><trkpt lat="44.7405317" lon="8.0260733"><ele>370.3333333333333</ele><time>2026-04-18T17:06:17.305Z</time></trkpt><trkpt lat="44.7405833" lon="8.02584"><ele>369.0</ele><time>2026-04-18T17:06:18.25Z</time></trkpt><trkpt lat="44.7406033" lon="8.0255867"><ele>365.3333333333333</ele><time>2026-04-18T17:06:19.25Z</time></trkpt><trkpt lat="44.7405983" lon="8.0253383"><ele>361.66666666666663</ele><time>2026-04-18T17:06:20.249Z</time></trkpt><trkpt lat="44.74057" lon="8.0250867"><ele>358.0</ele><time>2026-04-18T17:06:21.253Z</time></trkpt><trkpt lat="44.7405283" lon="8.0248383"><ele>356.66666666666663</ele><time>2026-04-18T17:06:22.246Z</time></trkpt><trkpt lat="44.7404767" lon="8.024605"><ele>355.3333333333333</ele><time>2026-04-18T17:06:23.3Z</time></trkpt><trkpt lat="44.7404067" lon="8.0243917"><ele>354.0</ele><time>2026-04-18T17:06:24.247Z</time></trkpt><trkpt lat="44.7403267" lon="8.0241967"><ele>355.25</ele><time>2026-04-18T17:06:25.252Z</time></trkpt><trkpt lat="44.7402317" lon="8.02403"><ele>356.5</ele><time>2026-04-18T17:06:26.252Z</time></trkpt><trkpt lat="44.7401317" lon="8.0238833"><ele>357.75</ele><time>2026-04-18T17:06:27.253Z</time></trkpt><trkpt lat="44.7400417" lon="8.0237367"><ele>359.0</ele><time>2026-04-18T17:06:28.249Z</time></trkpt><trkpt lat="44.7399633" lon="8.0235867"><ele>359.0</ele><time>2026-04-18T17:06:29.309Z</time></trkpt><trkpt lat="44.7399083" lon="8.0234333"><ele>359.0</ele><time>2026-04-18T17:06:30.253Z</time></trkpt><trkpt lat="44.739885" lon="8.0232583"><ele>359.0</ele><time>2026-04-18T17:06:31.255Z</time></trkpt><trkpt lat="44.7398917" lon="8.0230617"><ele>359.0</ele><time>2026-04-18T17:06:32.252Z</time></trkpt><trkpt lat="44.7399267" lon="8.0228467"><ele>356.33333333333337</ele><time>2026-04-18T17:06:33.253Z</time></trkpt><trkpt lat="44.73996" lon="8.0226167"><ele>353.6666666666667</ele><time>2026-04-18T17:06:34.25Z</time></trkpt><trkpt lat="44.7399917" lon="8.0223967"><ele>351.0</ele><time>2026-04-18T17:06:35.31Z</time></trkpt><trkpt lat="44.7400183" lon="8.0221967"><ele>348.5</ele><time>2026-04-18T17:06:36.246Z</time></trkpt><trkpt lat="44.74006" lon="8.022015"><ele>346.0</ele><time>2026-04-18T17:06:37.246Z</time></trkpt><trkpt lat="44.74014" lon="8.0218767"><ele>343.5</ele><time>2026-04-18T17:06:38.252Z</time></trkpt><trkpt lat="44.7402533" lon="8.0217717"><ele>341.0</ele><time>2026-04-18T17:06:39.248Z</time></trkpt><trkpt lat="44.7403883" lon="8.021675"><ele>337.0</ele><time>2026-04-18T17:06:40.247Z</time></trkpt><trkpt lat="44.7405367" lon="8.0215767"><ele>333.0</ele><time>2026-04-18T17:06:41.304Z</time></trkpt><trkpt lat="44.7406867" lon="8.0214783"><ele>329.0</ele><time>2026-04-18T17:06:42.247Z</time></trkpt><trkpt lat="44.74084" lon="8.0213717"><ele>329.0</ele><time>2026-04-18T17:06:43.254Z</time></trkpt><trkpt lat="44.7409867" lon="8.021255"><ele>329.0</ele><time>2026-04-18T17:06:44.246Z</time></trkpt><trkpt lat="44.7411267" lon="8.0211167"><ele>329.0</ele><time>2026-04-18T17:06:45.257Z</time></trkpt><trkpt lat="44.7412533" lon="8.0209633"><ele>326.6666666666667</ele><time>2026-04-18T17:06:46.256Z</time></trkpt><trkpt lat="44.7413717" lon="8.02081"><ele>324.3333333333333</ele><time>2026-04-18T17:06:47.296Z</time></trkpt><trkpt lat="44.741495" lon="8.0206517"><ele>322.0</ele><time>2026-04-18T17:06:48.249Z</time></trkpt><trkpt lat="44.741635" lon="8.0205267"><ele>322.0</ele><time>2026-04-18T17:06:49.257Z</time></trkpt><trkpt lat="44.7417883" lon="8.02042"><ele>322.0</ele><time>2026-04-18T17:06:50.252Z</time></trkpt><trkpt lat="44.7419533" lon="8.0203167"><ele>322.0</ele><time>2026-04-18T17:06:51.244Z</time></trkpt><trkpt lat="44.7421233" lon="8.0202083"><ele>322.0</ele><time>2026-04-18T17:06:52.251Z</time></trkpt><trkpt lat="44.7422983" lon="8.0201017"><ele>322.0</ele><time>2026-04-18T17:06:53.303Z</time></trkpt><trkpt lat="44.7424733" lon="8.0199883"><ele>322.0</ele><time>2026-04-18T17:06:54.246Z</time></trkpt><trkpt lat="44.742645" lon="8.0198783"><ele>321.0</ele><time>2026-04-18T17:06:55.253Z</time></trkpt><trkpt lat="44.7428167" lon="8.01977"><ele>320.0</ele><time>2026-04-18T17:06:56.254Z</time></trkpt><trkpt lat="44.742975" lon="8.0196617"><ele>319.0</ele><time>2026-04-18T17:06:57.252Z</time></trkpt><trkpt lat="44.743125" lon="8.0195383"><ele>319.0</ele><time>2026-04-18T17:06:58.258Z</time></trkpt><trkpt lat="44.7432617" lon="8.0193867"><ele>319.0</ele><time>2026-04-18T17:06:59.307Z</time></trkpt><trkpt lat="44.7433817" lon="8.0192033"><ele>319.0</ele><time>2026-04-18T17:07:00.246Z</time></trkpt><trkpt lat="44.74348" lon="8.0190017"><ele>319.0</ele><time>2026-04-18T17:07:01.246Z</time></trkpt><trkpt lat="44.7435733" lon="8.018795"><ele>319.0</ele><time>2026-04-18T17:07:02.253Z</time></trkpt><trkpt lat="44.74367" lon="8.0185883"><ele>319.0</ele><time>2026-04-18T17:07:03.252Z</time></trkpt><trkpt lat="44.7437667" lon="8.018385"><ele>317.66666666666663</ele><time>2026-04-18T17:07:04.254Z</time></trkpt><trkpt lat="44.743855" lon="8.0181767"><ele>316.3333333333333</ele><time>2026-04-18T17:07:05.306Z</time></trkpt><trkpt lat="44.7439383" lon="8.0179583"><ele>315.0</ele><time>2026-04-18T17:07:06.246Z</time></trkpt><trkpt lat="44.7440067" lon="8.01773"><ele>315.0</ele><time>2026-04-18T17:07:07.249Z</time></trkpt><trkpt lat="44.7440633" lon="8.017495"><ele>315.0</ele><time>2026-04-18T17:07:08.248Z</time></trkpt><trkpt lat="44.7441183" lon="8.01726"><ele>315.0</ele><time>2026-04-18T17:07:09.25Z</time></trkpt><trkpt lat="44.7441533" lon="8.0170167"><ele>312.3333333333333</ele><time>2026-04-18T17:07:10.25Z</time></trkpt><trkpt lat="44.744195" lon="8.0167817"><ele>309.66666666666663</ele><time>2026-04-18T17:07:11.303Z</time></trkpt><trkpt lat="44.744235" lon="8.0165567"><ele>307.0</ele><time>2026-04-18T17:07:12.25Z</time></trkpt><trkpt lat="44.74429" lon="8.01635"><ele>308.3333333333333</ele><time>2026-04-18T17:07:13.256Z</time></trkpt><trkpt lat="44.74437" lon="8.0161683"><ele>309.6666666666667</ele><time>2026-04-18T17:07:14.244Z</time></trkpt><trkpt lat="44.7444783" lon="8.0160033"><ele>311.0</ele><time>2026-04-18T17:07:15.253Z</time></trkpt><trkpt lat="44.7445967" lon="8.0158283"><ele>308.6666666666667</ele><time>2026-04-18T17:07:16.251Z</time></trkpt><trkpt lat="44.7447117" lon="8.0156333"><ele>306.3333333333333</ele><time>2026-04-18T17:07:17.295Z</time></trkpt><trkpt lat="44.7448217" lon="8.0154233"><ele>304.0</ele><time>2026-04-18T17:07:18.253Z</time></trkpt><trkpt lat="44.7449267" lon="8.0152083"><ele>304.0</ele><time>2026-04-18T17:07:19.248Z</time></trkpt><trkpt lat="44.7450267" lon="8.014995"><ele>304.0</ele><time>2026-04-18T17:07:20.254Z</time></trkpt><trkpt lat="44.74512" lon="8.0147883"><ele>304.0</ele><time>2026-04-18T17:07:21.248Z</time></trkpt><trkpt lat="44.7452033" lon="8.0145933"><ele>303.5</ele><time>2026-04-18T17:07:22.253Z</time></trkpt><trkpt lat="44.7452767" lon="8.014415"><ele>303.0</ele><time>2026-04-18T17:07:23.3Z</time></trkpt><trkpt lat="44.7453433" lon="8.0142467"><ele>302.5</ele><time>2026-04-18T17:07:24.256Z</time></trkpt><trkpt lat="44.7454" lon="8.0141067"><ele>302.0</ele><time>2026-04-18T17:07:25.253Z</time></trkpt><trkpt lat="44.7454467" lon="8.01401"><ele>300.75</ele><time>2026-04-18T17:07:26.253Z</time></trkpt><trkpt lat="44.74554" lon="8.0138967"><ele>299.5</ele><time>2026-04-18T17:07:28.255Z</time></trkpt><trkpt lat="44.74568" lon="8.01394"><ele>298.25</ele><time>2026-04-18T17:07:30.243Z</time></trkpt><trkpt lat="44.74577" lon="8.0140017"><ele>297.0</ele><time>2026-04-18T17:07:31.245Z</time></trkpt><trkpt lat="44.7458817" lon="8.0140733"><ele>297.0</ele><time>2026-04-18T17:07:32.254Z</time></trkpt><trkpt lat="44.746005" lon="8.01415"><ele>297.0</ele><time>2026-04-18T17:07:33.25Z</time></trkpt><trkpt lat="44.74615" lon="8.01423"><ele>297.0</ele><time>2026-04-18T17:07:34.248Z</time></trkpt><trkpt lat="44.74631" lon="8.014325"><ele>295.3333333333333</ele><time>2026-04-18T17:07:35.308Z</time></trkpt><trkpt lat="44.7464817" lon="8.0144267"><ele>293.66666666666663</ele><time>2026-04-18T17:07:36.254Z</time></trkpt><trkpt lat="44.7466583" lon="8.0145317"><ele>292.0</ele><time>2026-04-18T17:07:37.257Z</time></trkpt><trkpt lat="44.7468333" lon="8.0146317"><ele>288.3333333333333</ele><time>2026-04-18T17:07:38.255Z</time></trkpt><trkpt lat="44.7470033" lon="8.0147233"><ele>284.6666666666667</ele><time>2026-04-18T17:07:39.261Z</time></trkpt><trkpt lat="44.7471617" lon="8.0148117"><ele>281.0</ele><time>2026-04-18T17:07:40.25Z</time></trkpt><trkpt lat="44.7473117" lon="8.0148917"><ele>281.0</ele><time>2026-04-18T17:07:41.296Z</time></trkpt><trkpt lat="44.74745" lon="8.0149633"><ele>281.0</ele><time>2026-04-18T17:07:42.249Z</time></trkpt><trkpt lat="44.7475767" lon="8.015015"><ele>281.0</ele><time>2026-04-18T17:07:43.245Z</time></trkpt><trkpt lat="44.747705" lon="8.015045"><ele>281.0</ele><time>2026-04-18T17:07:44.249Z</time></trkpt><trkpt lat="44.74784" lon="8.0150417"><ele>279.6666666666667</ele><time>2026-04-18T17:07:45.253Z</time></trkpt><trkpt lat="44.7479983" lon="8.0150117"><ele>278.3333333333333</ele><time>2026-04-18T17:07:46.255Z</time></trkpt><trkpt lat="44.748175" lon="8.014985"><ele>277.0</ele><time>2026-04-18T17:07:47.293Z</time></trkpt><trkpt lat="44.748355" lon="8.0149433"><ele>277.0</ele><time>2026-04-18T17:07:48.245Z</time></trkpt><trkpt lat="44.748535" lon="8.0148883"><ele>277.0</ele><time>2026-04-18T17:07:49.251Z</time></trkpt><trkpt lat="44.748715" lon="8.0148117"><ele>277.0</ele><time>2026-04-18T17:07:50.255Z</time></trkpt><trkpt lat="44.748885" lon="8.0147167"><ele>277.3333333333333</ele><time>2026-04-18T17:07:51.255Z</time></trkpt><trkpt lat="44.7490517" lon="8.0146217"><ele>277.6666666666667</ele><time>2026-04-18T17:07:52.255Z</time></trkpt><trkpt lat="44.7492133" lon="8.014535"><ele>278.0</ele><time>2026-04-18T17:07:53.297Z</time></trkpt><trkpt lat="44.7493683" lon="8.0144517"><ele>278.0</ele><time>2026-04-18T17:07:54.251Z</time></trkpt><trkpt lat="44.7495067" lon="8.0143633"><ele>278.0</ele><time>2026-04-18T17:07:55.247Z</time></trkpt><trkpt lat="44.7496317" lon="8.01426"><ele>278.0</ele><time>2026-04-18T17:07:56.254Z</time></trkpt><trkpt lat="44.749745" lon="8.0141383"><ele>278.0</ele><time>2026-04-18T17:07:57.247Z</time></trkpt><trkpt lat="44.7498433" lon="8.0140133"><ele>277.2</ele><time>2026-04-18T17:07:58.253Z</time></trkpt><trkpt lat="44.7499267" lon="8.0138983"><ele>276.4</ele><time>2026-04-18T17:07:59.287Z</time></trkpt><trkpt lat="44.75" lon="8.0138"><ele>275.59999999999997</ele><time>2026-04-18T17:08:00.247Z</time></trkpt><trkpt lat="44.7500583" lon="8.0136933"><ele>274.8</ele><time>2026-04-18T17:08:01.249Z</time></trkpt><trkpt lat="44.75011" lon="8.0135633"><ele>274.0</ele><time>2026-04-18T17:08:02.251Z</time></trkpt><trkpt lat="44.7501583" lon="8.013415"><ele>272.75</ele><time>2026-04-18T17:08:03.256Z</time></trkpt><trkpt lat="44.7502233" lon="8.01328"><ele>271.5</ele><time>2026-04-18T17:08:04.257Z</time></trkpt><trkpt lat="44.750305" lon="8.0131417"><ele>270.25</ele><time>2026-04-18T17:08:05.313Z</time></trkpt><trkpt lat="44.7504017" lon="8.0130033"><ele>269.0</ele><time>2026-04-18T17:08:06.256Z</time></trkpt><trkpt lat="44.7504983" lon="8.0128467"><ele>269.0</ele><time>2026-04-18T17:08:07.256Z</time></trkpt><trkpt lat="44.7505883" lon="8.0126517"><ele>269.0</ele><time>2026-04-18T17:08:08.251Z</time></trkpt><trkpt lat="44.7506717" lon="8.012425"><ele>269.0</ele><time>2026-04-18T17:08:09.252Z</time></trkpt><trkpt lat="44.7507367" lon="8.0121683"><ele>268.6666666666667</ele><time>2026-04-18T17:08:10.254Z</time></trkpt><trkpt lat="44.750795" lon="8.0119"><ele>268.3333333333333</ele><time>2026-04-18T17:08:11.295Z</time></trkpt><trkpt lat="44.75085" lon="8.01165"><ele>268.0</ele><time>2026-04-18T17:08:12.254Z</time></trkpt><trkpt lat="44.7509067" lon="8.011425"><ele>267.5</ele><time>2026-04-18T17:08:13.252Z</time></trkpt><trkpt lat="44.7509683" lon="8.0112233"><ele>267.0</ele><time>2026-04-18T17:08:14.252Z</time></trkpt><trkpt lat="44.751035" lon="8.0110467"><ele>266.5</ele><time>2026-04-18T17:08:15.255Z</time></trkpt><trkpt lat="44.7511133" lon="8.0108883"><ele>266.0</ele><time>2026-04-18T17:08:16.257Z</time></trkpt><trkpt lat="44.751215" lon="8.0107583"><ele>264.5</ele><time>2026-04-18T17:08:17.295Z</time></trkpt><trkpt lat="44.75133" lon="8.0106467"><ele>263.0</ele><time>2026-04-18T17:08:18.245Z</time></trkpt><trkpt lat="44.7514417" lon="8.01054"><ele>261.5</ele><time>2026-04-18T17:08:19.246Z</time></trkpt><trkpt lat="44.7515433" lon="8.0104383"><ele>260.0</ele><time>2026-04-18T17:08:20.248Z</time></trkpt><trkpt lat="44.7516317" lon="8.0103383"><ele>260.0</ele><time>2026-04-18T17:08:21.251Z</time></trkpt><trkpt lat="44.7516983" lon="8.0102383"><ele>260.0</ele><time>2026-04-18T17:08:22.253Z</time></trkpt><trkpt lat="44.7517483" lon="8.0101467"><ele>260.0</ele><time>2026-04-18T17:08:23.297Z</time></trkpt><trkpt lat="44.7517733" lon="8.01006"><ele>260.0</ele><time>2026-04-18T17:08:24.249Z</time></trkpt><trkpt lat="44.7517867" lon="8.0098917"><ele>260.0</ele><time>2026-04-18T17:08:25.253Z</time></trkpt><trkpt lat="44.75178" lon="8.0097467"><ele>259.0</ele><time>2026-04-18T17:08:26.244Z</time></trkpt><trkpt lat="44.7517883" lon="8.00959"><ele>258.0</ele><time>2026-04-18T17:08:27.246Z</time></trkpt><trkpt lat="44.751815" lon="8.0094183"><ele>257.0</ele><time>2026-04-18T17:08:28.254Z</time></trkpt><trkpt lat="44.7518683" lon="8.00924"><ele>256.0</ele><time>2026-04-18T17:08:29.306Z</time></trkpt><trkpt lat="44.7519717" lon="8.0090383"><ele>253.0</ele><time>2026-04-18T17:08:30.245Z</time></trkpt><trkpt lat="44.7520817" lon="8.00882"><ele>250.0</ele><time>2026-04-18T17:08:31.251Z</time></trkpt><trkpt lat="44.7522067" lon="8.008585"><ele>247.0</ele><time>2026-04-18T17:08:32.255Z</time></trkpt><trkpt lat="44.752335" lon="8.0083417"><ele>245.66666666666666</ele><time>2026-04-18T17:08:33.253Z</time></trkpt><trkpt lat="44.7524517" lon="8.008105"><ele>244.33333333333331</ele><time>2026-04-18T17:08:34.257Z</time></trkpt><trkpt lat="44.7525633" lon="8.0078717"><ele>243.0</ele><time>2026-04-18T17:08:35.309Z</time></trkpt><trkpt lat="44.75268" lon="8.0076317"><ele>240.0</ele><time>2026-04-18T17:08:36.249Z</time></trkpt><trkpt lat="44.752805" lon="8.0073667"><ele>237.0</ele><time>2026-04-18T17:08:37.254Z</time></trkpt><trkpt lat="44.7529317" lon="8.0070783"><ele>237.0</ele><time>2026-04-18T17:08:38.253Z</time></trkpt><trkpt lat="44.7530483" lon="8.0067883"><ele>237.0</ele><time>2026-04-18T17:08:39.248Z</time></trkpt><trkpt lat="44.75315" lon="8.0065133"><ele>235.0</ele><time>2026-04-18T17:08:40.252Z</time></trkpt><trkpt lat="44.75324" lon="8.0062733"><ele>233.0</ele><time>2026-04-18T17:08:41.294Z</time></trkpt><trkpt lat="44.7533183" lon="8.0060667"><ele>231.0</ele><time>2026-04-18T17:08:42.245Z</time></trkpt><trkpt lat="44.7533867" lon="8.0058833"><ele>230.0</ele><time>2026-04-18T17:08:43.252Z</time></trkpt><trkpt lat="44.7534567" lon="8.00573"><ele>229.0</ele><time>2026-04-18T17:08:44.258Z</time></trkpt><trkpt lat="44.7535483" lon="8.0056033"><ele>228.0</ele><time>2026-04-18T17:08:45.247Z</time></trkpt><trkpt lat="44.7536683" lon="8.0054817"><ele>227.0</ele><time>2026-04-18T17:08:46.257Z</time></trkpt><trkpt lat="44.75382" lon="8.0053583"><ele>225.33333333333334</ele><time>2026-04-18T17:08:47.297Z</time></trkpt><trkpt lat="44.7539883" lon="8.0052267"><ele>223.66666666666669</ele><time>2026-04-18T17:08:48.241Z</time></trkpt><trkpt lat="44.7541733" lon="8.0050833"><ele>222.0</ele><time>2026-04-18T17:08:49.25Z</time></trkpt><trkpt lat="44.7543583" lon="8.004945"><ele>219.33333333333331</ele><time>2026-04-18T17:08:50.248Z</time></trkpt><trkpt lat="44.7545467" lon="8.0048283"><ele>216.66666666666666</ele><time>2026-04-18T17:08:51.25Z</time></trkpt><trkpt lat="44.7547367" lon="8.00473"><ele>214.0</ele><time>2026-04-18T17:08:52.25Z</time></trkpt><trkpt lat="44.7549183" lon="8.0046483"><ele>214.0</ele><time>2026-04-18T17:08:53.306Z</time></trkpt><trkpt lat="44.7550817" lon="8.0045633"><ele>214.0</ele><time>2026-04-18T17:08:54.245Z</time></trkpt><trkpt lat="44.755225" lon="8.0044733"><ele>214.0</ele><time>2026-04-18T17:08:55.247Z</time></trkpt><trkpt lat="44.7553467" lon="8.0043783"><ele>213.79999999999998</ele><time>2026-04-18T17:08:56.254Z</time></trkpt><trkpt lat="44.7554483" lon="8.0042783"><ele>213.59999999999997</ele><time>2026-04-18T17:08:57.252Z</time></trkpt><trkpt lat="44.75553" lon="8.0041867"><ele>213.4</ele><time>2026-04-18T17:08:58.256Z</time></trkpt><trkpt lat="44.7555917" lon="8.0041117"><ele>213.2</ele><time>2026-04-18T17:08:59.312Z</time></trkpt><trkpt lat="44.7556633" lon="8.0040283"><ele>213.0</ele><time>2026-04-18T17:09:01.254Z</time></trkpt><trkpt lat="44.7556717" lon="8.0039183"><ele>212.60000000000002</ele><time>2026-04-18T17:09:18.246Z</time></trkpt><trkpt lat="44.75563" lon="8.003775"><ele>212.20000000000002</ele><time>2026-04-18T17:09:20.247Z</time></trkpt><trkpt lat="44.7555567" lon="8.003655"><ele>211.8</ele><time>2026-04-18T17:09:22.247Z</time></trkpt><trkpt lat="44.7554833" lon="8.00356"><ele>211.4</ele><time>2026-04-18T17:09:24.247Z</time></trkpt><trkpt lat="44.7554317" lon="8.0034867"><ele>211.0</ele><time>2026-04-18T17:09:27.251Z</time></trkpt><trkpt lat="44.7553867" lon="8.0034"><ele>210.99999999999997</ele><time>2026-04-18T17:13:40.242Z</time></trkpt><trkpt lat="44.7553" lon="8.0033483"><ele>211.0</ele><time>2026-04-18T17:13:42.247Z</time></trkpt><trkpt lat="44.755215" lon="8.00332"><ele>211.0</ele><time>2026-04-18T17:13:44.247Z</time></trkpt><trkpt lat="44.7551533" lon="8.0032967"><ele>211.0</ele><time>2026-04-18T17:13:50.246Z</time></trkpt><trkpt lat="44.7551033" lon="8.0032283"><ele>210.99999999999997</ele><time>2026-04-18T17:13:51.25Z</time></trkpt><trkpt lat="44.755045" lon="8.003145"><ele>211.0</ele><time>2026-04-18T17:13:52.257Z</time></trkpt><trkpt lat="44.75497" lon="8.0030483"><ele>211.8</ele><time>2026-04-18T17:13:53.299Z</time></trkpt><trkpt lat="44.7548933" lon="8.0029533"><ele>212.60000000000002</ele><time>2026-04-18T17:13:54.249Z</time></trkpt><trkpt lat="44.7548183" lon="8.00286"><ele>213.4</ele><time>2026-04-18T17:13:55.248Z</time></trkpt><trkpt lat="44.7547517" lon="8.0027783"><ele>214.2</ele><time>2026-04-18T17:13:56.253Z</time></trkpt><trkpt lat="44.75469" lon="8.0026983"><ele>215.0</ele><time>2026-04-18T17:13:57.255Z</time></trkpt><trkpt lat="44.75463" lon="8.00261"><ele>215.0</ele><time>2026-04-18T17:13:58.251Z</time></trkpt><trkpt lat="44.7545667" lon="8.00252"><ele>215.0</ele><time>2026-04-18T17:13:59.313Z</time></trkpt><trkpt lat="44.7544967" lon="8.002435"><ele>215.0</ele><time>2026-04-18T17:14:00.25Z</time></trkpt><trkpt lat="44.754415" lon="8.002355"><ele>215.0</ele><time>2026-04-18T17:14:01.251Z</time></trkpt><trkpt lat="44.75432" lon="8.00227"><ele>215.0</ele><time>2026-04-18T17:14:02.249Z</time></trkpt><trkpt lat="44.75421" lon="8.0021717"><ele>215.33333333333334</ele><time>2026-04-18T17:14:03.253Z</time></trkpt><trkpt lat="44.7540883" lon="8.0020683"><ele>215.66666666666669</ele><time>2026-04-18T17:14:04.254Z</time></trkpt><trkpt lat="44.7539517" lon="8.001965"><ele>216.0</ele><time>2026-04-18T17:14:05.306Z</time></trkpt><trkpt lat="44.7538" lon="8.0018667"><ele>216.0</ele><time>2026-04-18T17:14:06.251Z</time></trkpt><trkpt lat="44.753635" lon="8.0017717"><ele>216.0</ele><time>2026-04-18T17:14:07.25Z</time></trkpt><trkpt lat="44.7534633" lon="8.0016817"><ele>216.0</ele><time>2026-04-18T17:14:08.248Z</time></trkpt><trkpt lat="44.7532883" lon="8.0016033"><ele>216.0</ele><time>2026-04-18T17:14:09.253Z</time></trkpt><trkpt lat="44.7531133" lon="8.00153"><ele>216.0</ele><time>2026-04-18T17:14:10.252Z</time></trkpt><trkpt lat="44.7529383" lon="8.0014533"><ele>216.0</ele><time>2026-04-18T17:14:11.297Z</time></trkpt><trkpt lat="44.7527683" lon="8.001375"><ele>216.0</ele><time>2026-04-18T17:14:12.251Z</time></trkpt><trkpt lat="44.7525967" lon="8.0012967"><ele>216.0</ele><time>2026-04-18T17:14:13.255Z</time></trkpt><trkpt lat="44.752425" lon="8.0012233"><ele>216.0</ele><time>2026-04-18T17:14:14.245Z</time></trkpt><trkpt lat="44.7522467" lon="8.0011517"><ele>216.0</ele><time>2026-04-18T17:14:15.252Z</time></trkpt><trkpt lat="44.75206" lon="8.001075"><ele>216.0</ele><time>2026-04-18T17:14:16.245Z</time></trkpt><trkpt lat="44.75187" lon="8.000995"><ele>216.0</ele><time>2026-04-18T17:14:17.295Z</time></trkpt><trkpt lat="44.7516817" lon="8.0009117"><ele>217.0</ele><time>2026-04-18T17:14:18.245Z</time></trkpt><trkpt lat="44.7515" lon="8.0008317"><ele>218.0</ele><time>2026-04-18T17:14:19.246Z</time></trkpt><trkpt lat="44.751325" lon="8.0007567"><ele>219.0</ele><time>2026-04-18T17:14:20.249Z</time></trkpt><trkpt lat="44.7511467" lon="8.0006867"><ele>219.0</ele><time>2026-04-18T17:14:21.25Z</time></trkpt><trkpt lat="44.75097" lon="8.0006117"><ele>219.0</ele><time>2026-04-18T17:14:22.248Z</time></trkpt><trkpt lat="44.7507917" lon="8.0005417"><ele>219.0</ele><time>2026-04-18T17:14:23.293Z</time></trkpt><trkpt lat="44.7506167" lon="8.0004717"><ele>219.0</ele><time>2026-04-18T17:14:24.246Z</time></trkpt><trkpt lat="44.750445" lon="8.0004067"><ele>219.0</ele><time>2026-04-18T17:14:25.248Z</time></trkpt><trkpt lat="44.7502767" lon="8.00034"><ele>219.0</ele><time>2026-04-18T17:14:26.247Z</time></trkpt><trkpt lat="44.7501117" lon="8.000275"><ele>218.66666666666669</ele><time>2026-04-18T17:14:27.25Z</time></trkpt><trkpt lat="44.74995" lon="8.0002017"><ele>218.33333333333334</ele><time>2026-04-18T17:14:28.248Z</time></trkpt><trkpt lat="44.7497933" lon="8.0001283"><ele>218.0</ele><time>2026-04-18T17:14:29.309Z</time></trkpt><trkpt lat="44.7496367" lon="8.00006"><ele>218.0</ele><time>2026-04-18T17:14:30.242Z</time></trkpt><trkpt lat="44.7494767" lon="7.9999933"><ele>218.0</ele><time>2026-04-18T17:14:31.249Z</time></trkpt><trkpt lat="44.7493067" lon="7.999925"><ele>218.0</ele><time>2026-04-18T17:14:32.244Z</time></trkpt><trkpt lat="44.7491283" lon="7.9998583"><ele>218.0</ele><time>2026-04-18T17:14:33.242Z</time></trkpt><trkpt lat="44.7489483" lon="7.9998033"><ele>218.0</ele><time>2026-04-18T17:14:34.251Z</time></trkpt><trkpt lat="44.7487667" lon="7.9997517"><ele>218.0</ele><time>2026-04-18T17:14:35.311Z</time></trkpt><trkpt lat="44.7485883" lon="7.9997083"><ele>218.66666666666669</ele><time>2026-04-18T17:14:36.247Z</time></trkpt><trkpt lat="44.7484083" lon="7.9996717"><ele>219.33333333333331</ele><time>2026-04-18T17:14:37.251Z</time></trkpt><trkpt lat="44.7482317" lon="7.9996383"><ele>220.0</ele><time>2026-04-18T17:14:38.249Z</time></trkpt><trkpt lat="44.7480617" lon="7.9996083"><ele>220.0</ele><time>2026-04-18T17:14:39.25Z</time></trkpt><trkpt lat="44.7478983" lon="7.9995867"><ele>220.0</ele><time>2026-04-18T17:14:40.247Z</time></trkpt><trkpt lat="44.74774" lon="7.99958"><ele>220.0</ele><time>2026-04-18T17:14:41.298Z</time></trkpt><trkpt lat="44.74758" lon="7.999575"><ele>221.0</ele><time>2026-04-18T17:14:42.243Z</time></trkpt><trkpt lat="44.7474067" lon="7.99958"><ele>222.0</ele><time>2026-04-18T17:14:43.249Z</time></trkpt><trkpt lat="44.7472217" lon="7.9995833"><ele>223.0</ele><time>2026-04-18T17:14:44.249Z</time></trkpt><trkpt lat="44.7470233" lon="7.99959"><ele>224.66666666666666</ele><time>2026-04-18T17:14:45.247Z</time></trkpt><trkpt lat="44.7468283" lon="7.9996017"><ele>226.33333333333331</ele><time>2026-04-18T17:14:46.248Z</time></trkpt><trkpt lat="44.74665" lon="7.99962"><ele>228.0</ele><time>2026-04-18T17:14:47.306Z</time></trkpt><trkpt lat="44.7464917" lon="7.99964"><ele>228.0</ele><time>2026-04-18T17:14:48.249Z</time></trkpt><trkpt lat="44.74634" lon="7.9996567"><ele>228.0</ele><time>2026-04-18T17:14:49.248Z</time></trkpt><trkpt lat="44.74619" lon="7.9996717"><ele>228.0</ele><time>2026-04-18T17:14:50.247Z</time></trkpt><trkpt lat="44.74604" lon="7.99968"><ele>231.0</ele><time>2026-04-18T17:14:51.247Z</time></trkpt><trkpt lat="44.745885" lon="7.9996833"><ele>234.0</ele><time>2026-04-18T17:14:52.258Z</time></trkpt><trkpt lat="44.7457283" lon="7.999675"><ele>237.0</ele><time>2026-04-18T17:14:53.297Z</time></trkpt><trkpt lat="44.745565" lon="7.9996517"><ele>237.0</ele><time>2026-04-18T17:14:54.244Z</time></trkpt><trkpt lat="44.7454033" lon="7.999615"><ele>237.0</ele><time>2026-04-18T17:14:55.254Z</time></trkpt><trkpt lat="44.745245" lon="7.99956"><ele>237.0</ele><time>2026-04-18T17:14:56.251Z</time></trkpt><trkpt lat="44.74509" lon="7.999485"><ele>238.66666666666669</ele><time>2026-04-18T17:14:57.254Z</time></trkpt><trkpt lat="44.7449317" lon="7.9993917"><ele>240.33333333333334</ele><time>2026-04-18T17:14:58.257Z</time></trkpt><trkpt lat="44.744775" lon="7.99928"><ele>242.0</ele><time>2026-04-18T17:14:59.305Z</time></trkpt><trkpt lat="44.7446233" lon="7.9991517"><ele>242.66666666666669</ele><time>2026-04-18T17:15:00.248Z</time></trkpt><trkpt lat="44.744485" lon="7.9990117"><ele>243.33333333333331</ele><time>2026-04-18T17:15:01.25Z</time></trkpt><trkpt lat="44.7443583" lon="7.9988617"><ele>244.0</ele><time>2026-04-18T17:15:02.249Z</time></trkpt><trkpt lat="44.7442383" lon="7.9987033"><ele>243.66666666666666</ele><time>2026-04-18T17:15:03.254Z</time></trkpt><trkpt lat="44.7441333" lon="7.9985367"><ele>243.33333333333331</ele><time>2026-04-18T17:15:04.248Z</time></trkpt><trkpt lat="44.744025" lon="7.9983767"><ele>243.0</ele><time>2026-04-18T17:15:05.308Z</time></trkpt><trkpt lat="44.74394" lon="7.9982083"><ele>243.0</ele><time>2026-04-18T17:15:06.241Z</time></trkpt><trkpt lat="44.7438617" lon="7.9980417"><ele>243.0</ele><time>2026-04-18T17:15:07.246Z</time></trkpt><trkpt lat="44.7437833" lon="7.9978767"><ele>243.0</ele><time>2026-04-18T17:15:08.247Z</time></trkpt><trkpt lat="44.7437083" lon="7.9977133"><ele>243.0</ele><time>2026-04-18T17:15:09.252Z</time></trkpt><trkpt lat="44.7436367" lon="7.9975567"><ele>243.4</ele><time>2026-04-18T17:15:10.248Z</time></trkpt><trkpt lat="44.7435683" lon="7.9974117"><ele>243.8</ele><time>2026-04-18T17:15:11.303Z</time></trkpt><trkpt lat="44.7435033" lon="7.9972833"><ele>244.2</ele><time>2026-04-18T17:15:12.242Z</time></trkpt><trkpt lat="44.7434483" lon="7.9971883"><ele>244.6</ele><time>2026-04-18T17:15:13.251Z</time></trkpt><trkpt lat="44.7433983" lon="7.9971133"><ele>245.0</ele><time>2026-04-18T17:15:14.248Z</time></trkpt><trkpt lat="44.743305" lon="7.9969983"><ele>241.75</ele><time>2026-04-18T17:15:16.254Z</time></trkpt><trkpt lat="44.74323" lon="7.9968283"><ele>238.5</ele><time>2026-04-18T17:15:18.242Z</time></trkpt><trkpt lat="44.7431783" lon="7.9966833"><ele>235.25</ele><time>2026-04-18T17:15:19.257Z</time></trkpt><trkpt lat="44.74312" lon="7.996515"><ele>232.0</ele><time>2026-04-18T17:15:20.25Z</time></trkpt><trkpt lat="44.743045" lon="7.9962917"><ele>231.66666666666666</ele><time>2026-04-18T17:15:21.245Z</time></trkpt><trkpt lat="44.7429667" lon="7.9960467"><ele>231.33333333333331</ele><time>2026-04-18T17:15:22.246Z</time></trkpt><trkpt lat="44.742885" lon="7.995765"><ele>231.0</ele><time>2026-04-18T17:15:23.296Z</time></trkpt><trkpt lat="44.7428067" lon="7.9954533"><ele>230.0</ele><time>2026-04-18T17:15:24.243Z</time></trkpt><trkpt lat="44.742725" lon="7.9951267"><ele>229.0</ele><time>2026-04-18T17:15:25.244Z</time></trkpt><trkpt lat="44.7426467" lon="7.9948033"><ele>224.5</ele><time>2026-04-18T17:15:26.254Z</time></trkpt><trkpt lat="44.74257" lon="7.994495"><ele>220.0</ele><time>2026-04-18T17:15:27.243Z</time></trkpt><trkpt lat="44.7424933" lon="7.9942033"><ele>217.66666666666666</ele><time>2026-04-18T17:15:28.252Z</time></trkpt><trkpt lat="44.74242" lon="7.9939167"><ele>215.33333333333331</ele><time>2026-04-18T17:15:29.307Z</time></trkpt><trkpt lat="44.74235" lon="7.9936283"><ele>213.0</ele><time>2026-04-18T17:15:30.253Z</time></trkpt><trkpt lat="44.7422817" lon="7.993345"><ele>212.33333333333331</ele><time>2026-04-18T17:15:31.253Z</time></trkpt><trkpt lat="44.7422133" lon="7.99307"><ele>211.66666666666666</ele><time>2026-04-18T17:15:32.251Z</time></trkpt><trkpt lat="44.7421483" lon="7.9928067"><ele>211.0</ele><time>2026-04-18T17:15:33.251Z</time></trkpt><trkpt lat="44.7420833" lon="7.99255"><ele>210.66666666666666</ele><time>2026-04-18T17:15:34.249Z</time></trkpt><trkpt lat="44.742015" lon="7.9923"><ele>210.33333333333331</ele><time>2026-04-18T17:15:35.305Z</time></trkpt><trkpt lat="44.74194" lon="7.9920583"><ele>210.0</ele><time>2026-04-18T17:15:36.249Z</time></trkpt><trkpt lat="44.7418567" lon="7.991825"><ele>209.66666666666669</ele><time>2026-04-18T17:15:37.243Z</time></trkpt><trkpt lat="44.7417667" lon="7.9915967"><ele>209.33333333333334</ele><time>2026-04-18T17:15:38.246Z</time></trkpt><trkpt lat="44.7416717" lon="7.99137"><ele>209.0</ele><time>2026-04-18T17:15:39.253Z</time></trkpt><trkpt lat="44.74158" lon="7.9911417"><ele>209.0</ele><time>2026-04-18T17:15:40.25Z</time></trkpt><trkpt lat="44.74149" lon="7.99091"><ele>209.0</ele><time>2026-04-18T17:15:41.309Z</time></trkpt><trkpt lat="44.7413967" lon="7.9906733"><ele>209.0</ele><time>2026-04-18T17:15:42.251Z</time></trkpt><trkpt lat="44.741305" lon="7.99044"><ele>208.66666666666669</ele><time>2026-04-18T17:15:43.26Z</time></trkpt><trkpt lat="44.7412117" lon="7.9902083"><ele>208.33333333333331</ele><time>2026-04-18T17:15:44.241Z</time></trkpt><trkpt lat="44.7411167" lon="7.9899783"><ele>208.0</ele><time>2026-04-18T17:15:45.255Z</time></trkpt><trkpt lat="44.7410233" lon="7.9897517"><ele>207.66666666666666</ele><time>2026-04-18T17:15:46.251Z</time></trkpt><trkpt lat="44.7409283" lon="7.9895217"><ele>207.33333333333331</ele><time>2026-04-18T17:15:47.301Z</time></trkpt><trkpt lat="44.7408333" lon="7.9892917"><ele>207.0</ele><time>2026-04-18T17:15:48.248Z</time></trkpt><trkpt lat="44.740735" lon="7.989055"><ele>207.0</ele><time>2026-04-18T17:15:49.251Z</time></trkpt><trkpt lat="44.740635" lon="7.9888083"><ele>207.0</ele><time>2026-04-18T17:15:50.255Z</time></trkpt><trkpt lat="44.7405333" lon="7.9885583"><ele>207.0</ele><time>2026-04-18T17:15:51.255Z</time></trkpt><trkpt lat="44.7404317" lon="7.9883117"><ele>208.0</ele><time>2026-04-18T17:15:52.25Z</time></trkpt><trkpt lat="44.740335" lon="7.9880667"><ele>209.0</ele><time>2026-04-18T17:15:53.299Z</time></trkpt><trkpt lat="44.7402383" lon="7.9878283"><ele>210.0</ele><time>2026-04-18T17:15:54.243Z</time></trkpt><trkpt lat="44.740145" lon="7.987595"><ele>210.33333333333331</ele><time>2026-04-18T17:15:55.245Z</time></trkpt><trkpt lat="44.7400483" lon="7.987365"><ele>210.66666666666666</ele><time>2026-04-18T17:15:56.248Z</time></trkpt><trkpt lat="44.739955" lon="7.9871317"><ele>211.0</ele><time>2026-04-18T17:15:57.251Z</time></trkpt><trkpt lat="44.7398667" lon="7.9869017"><ele>213.0</ele><time>2026-04-18T17:15:58.249Z</time></trkpt><trkpt lat="44.7397817" lon="7.9866733"><ele>215.0</ele><time>2026-04-18T17:15:59.304Z</time></trkpt><trkpt lat="44.7397033" lon="7.986445"><ele>217.0</ele><time>2026-04-18T17:16:00.246Z</time></trkpt><trkpt lat="44.7396367" lon="7.986215"><ele>217.0</ele><time>2026-04-18T17:16:01.246Z</time></trkpt><trkpt lat="44.739575" lon="7.9859867"><ele>217.0</ele><time>2026-04-18T17:16:02.248Z</time></trkpt><trkpt lat="44.73951" lon="7.98576"><ele>217.0</ele><time>2026-04-18T17:16:03.249Z</time></trkpt><trkpt lat="44.7394467" lon="7.9855317"><ele>217.66666666666666</ele><time>2026-04-18T17:16:04.245Z</time></trkpt><trkpt lat="44.7393817" lon="7.985305"><ele>218.33333333333331</ele><time>2026-04-18T17:16:05.308Z</time></trkpt><trkpt lat="44.7393167" lon="7.9850767"><ele>219.0</ele><time>2026-04-18T17:16:06.251Z</time></trkpt><trkpt lat="44.7392517" lon="7.98485"><ele>219.0</ele><time>2026-04-18T17:16:07.255Z</time></trkpt><trkpt lat="44.73919" lon="7.984625"><ele>219.0</ele><time>2026-04-18T17:16:08.25Z</time></trkpt><trkpt lat="44.7391267" lon="7.9844017"><ele>219.0</ele><time>2026-04-18T17:16:09.255Z</time></trkpt><trkpt lat="44.739065" lon="7.984175"><ele>219.0</ele><time>2026-04-18T17:16:10.249Z</time></trkpt><trkpt lat="44.739005" lon="7.9839517"><ele>219.0</ele><time>2026-04-18T17:16:11.305Z</time></trkpt><trkpt lat="44.7389417" lon="7.9837317"><ele>219.0</ele><time>2026-04-18T17:16:12.251Z</time></trkpt><trkpt lat="44.7388833" lon="7.9835167"><ele>220.5</ele><time>2026-04-18T17:16:13.25Z</time></trkpt><trkpt lat="44.7388267" lon="7.98331"><ele>222.0</ele><time>2026-04-18T17:16:14.248Z</time></trkpt><trkpt lat="44.7387717" lon="7.98312"><ele>223.5</ele><time>2026-04-18T17:16:15.251Z</time></trkpt><trkpt lat="44.73872" lon="7.9829517"><ele>225.0</ele><time>2026-04-18T17:16:16.254Z</time></trkpt><trkpt lat="44.7386717" lon="7.9828"><ele>225.0</ele><time>2026-04-18T17:16:17.305Z</time></trkpt><trkpt lat="44.7386233" lon="7.9826733"><ele>225.0</ele><time>2026-04-18T17:16:18.246Z</time></trkpt><trkpt lat="44.738575" lon="7.9825667"><ele>225.0</ele><time>2026-04-18T17:16:19.254Z</time></trkpt><trkpt lat="44.738525" lon="7.9824767"><ele>225.0</ele><time>2026-04-18T17:16:20.25Z</time></trkpt><trkpt lat="44.7384717" lon="7.9824067"><ele>225.0</ele><time>2026-04-18T17:16:21.253Z</time></trkpt><trkpt lat="44.738405" lon="7.982335"><ele>225.0</ele><time>2026-04-18T17:16:22.252Z</time></trkpt><trkpt lat="44.7383167" lon="7.98226"><ele>224.0</ele><time>2026-04-18T17:16:23.301Z</time></trkpt><trkpt lat="44.7382067" lon="7.982185"><ele>223.0</ele><time>2026-04-18T17:16:24.242Z</time></trkpt><trkpt lat="44.738045" lon="7.982105"><ele>222.0</ele><time>2026-04-18T17:16:25.245Z</time></trkpt><trkpt lat="44.737885" lon="7.9820183"><ele>221.33333333333331</ele><time>2026-04-18T17:16:26.246Z</time></trkpt><trkpt lat="44.7377183" lon="7.9819333"><ele>220.66666666666666</ele><time>2026-04-18T17:16:27.247Z</time></trkpt><trkpt lat="44.7375517" lon="7.981835"><ele>220.0</ele><time>2026-04-18T17:16:28.252Z</time></trkpt><trkpt lat="44.7373917" lon="7.9817367"><ele>218.0</ele><time>2026-04-18T17:16:29.306Z</time></trkpt><trkpt lat="44.737235" lon="7.9816417"><ele>216.0</ele><time>2026-04-18T17:16:30.242Z</time></trkpt><trkpt lat="44.737095" lon="7.9815517"><ele>214.0</ele><time>2026-04-18T17:16:31.252Z</time></trkpt><trkpt lat="44.73696" lon="7.9814683"><ele>212.0</ele><time>2026-04-18T17:16:32.243Z</time></trkpt><trkpt lat="44.736815" lon="7.9813833"><ele>210.0</ele><time>2026-04-18T17:16:33.246Z</time></trkpt><trkpt lat="44.736665" lon="7.9812867"><ele>208.0</ele><time>2026-04-18T17:16:34.245Z</time></trkpt><trkpt lat="44.7365183" lon="7.981175"><ele>208.0</ele><time>2026-04-18T17:16:35.306Z</time></trkpt><trkpt lat="44.736385" lon="7.981055"><ele>208.0</ele><time>2026-04-18T17:16:36.245Z</time></trkpt><trkpt lat="44.7362533" lon="7.9809267"><ele>208.0</ele><time>2026-04-18T17:16:37.243Z</time></trkpt><trkpt lat="44.736125" lon="7.9807983"><ele>206.33333333333331</ele><time>2026-04-18T17:16:38.25Z</time></trkpt><trkpt lat="44.7360033" lon="7.9806667"><ele>204.66666666666669</ele><time>2026-04-18T17:16:39.251Z</time></trkpt><trkpt lat="44.73589" lon="7.98052"><ele>203.0</ele><time>2026-04-18T17:16:40.25Z</time></trkpt><trkpt lat="44.7357867" lon="7.9803567"><ele>203.0</ele><time>2026-04-18T17:16:41.312Z</time></trkpt><trkpt lat="44.7356967" lon="7.9801817"><ele>203.0</ele><time>2026-04-18T17:16:42.249Z</time></trkpt><trkpt lat="44.7356167" lon="7.9799983"><ele>203.0</ele><time>2026-04-18T17:16:43.252Z</time></trkpt><trkpt lat="44.7355367" lon="7.9798033"><ele>202.75</ele><time>2026-04-18T17:16:44.253Z</time></trkpt><trkpt lat="44.7354617" lon="7.9796067"><ele>202.5</ele><time>2026-04-18T17:16:45.252Z</time></trkpt><trkpt lat="44.7353967" lon="7.979425"><ele>202.25</ele><time>2026-04-18T17:16:46.247Z</time></trkpt><trkpt lat="44.73534" lon="7.9792617"><ele>202.0</ele><time>2026-04-18T17:16:47.302Z</time></trkpt><trkpt lat="44.7352917" lon="7.9791167"><ele>201.83333333333331</ele><time>2026-04-18T17:16:48.252Z</time></trkpt><trkpt lat="44.73525" lon="7.978995"><ele>201.66666666666666</ele><time>2026-04-18T17:16:49.251Z</time></trkpt><trkpt lat="44.73521" lon="7.9788833"><ele>201.5</ele><time>2026-04-18T17:16:50.254Z</time></trkpt><trkpt lat="44.7351667" lon="7.9788"><ele>201.33333333333331</ele><time>2026-04-18T17:16:51.256Z</time></trkpt><trkpt lat="44.7351067" lon="7.9787467"><ele>201.16666666666666</ele><time>2026-04-18T17:16:52.247Z</time></trkpt><trkpt lat="44.7350317" lon="7.9787333"><ele>201.0</ele><time>2026-04-18T17:16:53.308Z</time></trkpt><trkpt lat="44.734935" lon="7.97873"><ele>200.75</ele><time>2026-04-18T17:16:54.254Z</time></trkpt><trkpt lat="44.7348117" lon="7.9787667"><ele>200.5</ele><time>2026-04-18T17:16:55.253Z</time></trkpt><trkpt lat="44.7346583" lon="7.9788217"><ele>200.25</ele><time>2026-04-18T17:16:56.244Z</time></trkpt><trkpt lat="44.7345067" lon="7.9788733"><ele>200.0</ele><time>2026-04-18T17:16:57.25Z</time></trkpt><trkpt lat="44.7343633" lon="7.97892"><ele>199.4</ele><time>2026-04-18T17:16:58.252Z</time></trkpt><trkpt lat="44.7342517" lon="7.97895"><ele>198.8</ele><time>2026-04-18T17:16:59.305Z</time></trkpt><trkpt lat="44.73416" lon="7.9789617"><ele>198.2</ele><time>2026-04-18T17:17:00.248Z</time></trkpt><trkpt lat="44.734085" lon="7.9789583"><ele>197.6</ele><time>2026-04-18T17:17:01.253Z</time></trkpt><trkpt lat="44.7340167" lon="7.97894"><ele>197.0</ele><time>2026-04-18T17:17:02.247Z</time></trkpt><trkpt lat="44.733915" lon="7.9788517"><ele>197.0</ele><time>2026-04-18T17:17:04.247Z</time></trkpt><trkpt lat="44.7338217" lon="7.9788517"><ele>197.0</ele><time>2026-04-18T17:17:06.247Z</time></trkpt><trkpt lat="44.7337717" lon="7.97891"><ele>197.0</ele><time>2026-04-18T17:17:07.246Z</time></trkpt><trkpt lat="44.7337233" lon="7.97903"><ele>197.0</ele><time>2026-04-18T17:17:08.252Z</time></trkpt><trkpt lat="44.733655" lon="7.979185"><ele>197.0</ele><time>2026-04-18T17:17:09.246Z</time></trkpt><trkpt lat="44.7335667" lon="7.9793733"><ele>196.66666666666669</ele><time>2026-04-18T17:17:10.253Z</time></trkpt><trkpt lat="44.7334683" lon="7.9795767"><ele>196.33333333333331</ele><time>2026-04-18T17:17:11.313Z</time></trkpt><trkpt lat="44.73336" lon="7.9797867"><ele>196.0</ele><time>2026-04-18T17:17:12.246Z</time></trkpt><trkpt lat="44.7332417" lon="7.9800133"><ele>196.66666666666666</ele><time>2026-04-18T17:17:13.252Z</time></trkpt><trkpt lat="44.7331117" lon="7.9802583"><ele>197.33333333333331</ele><time>2026-04-18T17:17:14.252Z</time></trkpt><trkpt lat="44.7329917" lon="7.9804933"><ele>198.0</ele><time>2026-04-18T17:17:15.255Z</time></trkpt><trkpt lat="44.7328767" lon="7.9807167"><ele>198.33333333333331</ele><time>2026-04-18T17:17:16.246Z</time></trkpt><trkpt lat="44.7327667" lon="7.98093"><ele>198.66666666666666</ele><time>2026-04-18T17:17:17.305Z</time></trkpt><trkpt lat="44.73266" lon="7.9811417"><ele>199.0</ele><time>2026-04-18T17:17:18.248Z</time></trkpt><trkpt lat="44.7325533" lon="7.9813533"><ele>197.66666666666666</ele><time>2026-04-18T17:17:19.251Z</time></trkpt><trkpt lat="44.7324517" lon="7.9815617"><ele>196.33333333333331</ele><time>2026-04-18T17:17:20.251Z</time></trkpt><trkpt lat="44.732345" lon="7.9817667"><ele>195.0</ele><time>2026-04-18T17:17:21.255Z</time></trkpt><trkpt lat="44.7322433" lon="7.9819717"><ele>195.0</ele><time>2026-04-18T17:17:22.254Z</time></trkpt><trkpt lat="44.7321433" lon="7.9821683"><ele>195.0</ele><time>2026-04-18T17:17:23.297Z</time></trkpt><trkpt lat="44.7320467" lon="7.9823583"><ele>195.0</ele><time>2026-04-18T17:17:24.243Z</time></trkpt><trkpt lat="44.7319567" lon="7.982535"><ele>194.66666666666669</ele><time>2026-04-18T17:17:25.248Z</time></trkpt><trkpt lat="44.731865" lon="7.98271"><ele>194.33333333333334</ele><time>2026-04-18T17:17:26.243Z</time></trkpt><trkpt lat="44.7317667" lon="7.9829017"><ele>194.0</ele><time>2026-04-18T17:17:27.245Z</time></trkpt><trkpt lat="44.7316567" lon="7.9831133"><ele>194.0</ele><time>2026-04-18T17:17:28.249Z</time></trkpt><trkpt lat="44.731535" lon="7.9833467"><ele>194.0</ele><time>2026-04-18T17:17:29.304Z</time></trkpt><trkpt lat="44.7314167" lon="7.9835917"><ele>194.0</ele><time>2026-04-18T17:17:30.246Z</time></trkpt><trkpt lat="44.7313" lon="7.9838233"><ele>194.33333333333334</ele><time>2026-04-18T17:17:31.246Z</time></trkpt><trkpt lat="44.7311883" lon="7.98404"><ele>194.66666666666669</ele><time>2026-04-18T17:17:32.248Z</time></trkpt><trkpt lat="44.73108" lon="7.9842533"><ele>195.0</ele><time>2026-04-18T17:17:33.253Z</time></trkpt><trkpt lat="44.7309767" lon="7.98446"><ele>194.0</ele><time>2026-04-18T17:17:34.247Z</time></trkpt><trkpt lat="44.73088" lon="7.9846583"><ele>193.0</ele><time>2026-04-18T17:17:35.311Z</time></trkpt><trkpt lat="44.730795" lon="7.98485"><ele>192.0</ele><time>2026-04-18T17:17:36.249Z</time></trkpt><trkpt lat="44.7307267" lon="7.9850367"><ele>192.0</ele><time>2026-04-18T17:17:37.25Z</time></trkpt><trkpt lat="44.7306733" lon="7.9852217"><ele>192.0</ele><time>2026-04-18T17:17:38.254Z</time></trkpt><trkpt lat="44.7306383" lon="7.9853983"><ele>192.0</ele><time>2026-04-18T17:17:39.249Z</time></trkpt><trkpt lat="44.7306067" lon="7.9855567"><ele>192.0</ele><time>2026-04-18T17:17:40.257Z</time></trkpt><trkpt lat="44.7305967" lon="7.9856967"><ele>192.0</ele><time>2026-04-18T17:17:41.306Z</time></trkpt><trkpt lat="44.7305967" lon="7.9858217"><ele>192.0</ele><time>2026-04-18T17:17:42.249Z</time></trkpt><trkpt lat="44.7305983" lon="7.985925"><ele>192.0</ele><time>2026-04-18T17:17:43.254Z</time></trkpt><trkpt lat="44.7306067" lon="7.9860217"><ele>192.0</ele><time>2026-04-18T17:17:44.252Z</time></trkpt><trkpt lat="44.7306567" lon="7.9861433"><ele>192.0</ele><time>2026-04-18T17:17:46.249Z</time></trkpt><trkpt lat="44.7307783" lon="7.98614"><ele>192.0</ele><time>2026-04-18T17:17:48.246Z</time></trkpt><trkpt lat="44.73085" lon="7.9861133"><ele>192.0</ele><time>2026-04-18T17:17:49.252Z</time></trkpt><trkpt lat="44.73092" lon="7.98607"><ele>192.0</ele><time>2026-04-18T17:17:50.249Z</time></trkpt><trkpt lat="44.7309767" lon="7.9860033"><ele>192.0</ele><time>2026-04-18T17:17:51.25Z</time></trkpt><trkpt lat="44.73102" lon="7.9859183"><ele>192.0</ele><time>2026-04-18T17:17:52.253Z</time></trkpt><trkpt lat="44.7310517" lon="7.98581"><ele>192.0</ele><time>2026-04-18T17:17:53.299Z</time></trkpt><trkpt lat="44.73108" lon="7.9857033"><ele>197.0</ele><time>2026-04-18T17:17:54.248Z</time></trkpt><trkpt lat="44.7311017" lon="7.98561"><ele>197.0</ele><time>2026-04-18T17:17:55.251Z</time></trkpt><trkpt lat="44.73111" lon="7.98547"><ele>197.0</ele><time>2026-04-18T17:17:57.249Z</time></trkpt><trkpt lat="44.7310383" lon="7.985365"><ele>192.0</ele><time>2026-04-18T17:18:15.246Z</time></trkpt></trkseg></trk></gpx>